<?xml version="1.0" encoding="UTF-8" standalone="no" ?>
<gpx xmlns="http://www.topografix.com/GPX/1/1" creator="MapSource 6.16.3" version="1.1" xmlns:xsi="http://www.w3.org/2001/XMLSchema-instance" xsi:schemaLocation="http://www.topografix.com/GPX/1/1 http://www.topografix.com/GPX/1/1/gpx.xsd">

  <metadata>
    <link href="http://www.garmin.com">
      <text>Garmin International</text>
    </link>
    <time>2016-09-17T07:40:21Z</time>
    <bounds maxlat="44.443957367911935" maxlon="11.10987544991076" minlat="44.357514381408691" minlon="11.046066284179687"/>
  </metadata>

  <wpt lat="44.443316655233502" lon="11.098766662180424">
    <name>PARTENZA / ARRIVO</name>
    <cmt>Strada Provinciale Valle Samoggia</cmt>
    <desc>Strada Provinciale Valle Samoggia</desc>
    <sym>Trail Head</sym>
    <extensions>
      <gpxx:WaypointExtension xmlns:gpxx="http://www.garmin.com/xmlschemas/GpxExtensions/v3">
        <gpxx:DisplayMode>SymbolAndName</gpxx:DisplayMode>
      </gpxx:WaypointExtension>
    </extensions>
  </wpt>

  <trk>
    <name>ACTIVE LOG</name>
    <trkseg>
      <trkpt lat="44.443316403776407" lon="11.098759956657887">
        <ele>129.9153</ele>
        <time>2005-11-20T11:07:59Z</time>
      </trkpt>
      <trkpt lat="44.443343477323651" lon="11.098778313025832">
        <ele>131.35730000000001</ele>
        <time>2005-11-20T11:07:52Z</time>
      </trkpt>
      <trkpt lat="44.44334683008492" lon="11.098775127902627">
        <ele>131.35730000000001</ele>
        <time>2005-11-20T11:07:25Z</time>
      </trkpt>
      <trkpt lat="44.443351188674569" lon="11.098775798454881">
        <ele>131.35730000000001</ele>
        <time>2005-11-20T11:07:12Z</time>
      </trkpt>
      <trkpt lat="44.443424446508288" lon="11.098767165094614">
        <ele>131.83789999999999</ele>
        <time>2005-11-20T11:07:07Z</time>
      </trkpt>
      <trkpt lat="44.443384716287255" lon="11.098811505362391">
        <ele>133.2799</ele>
        <time>2005-11-20T11:07:02Z</time>
      </trkpt>
      <trkpt lat="44.443068215623498" lon="11.098714023828506">
        <ele>133.2799</ele>
        <time>2005-11-20T11:06:56Z</time>
      </trkpt>
      <trkpt lat="44.44251760840416" lon="11.098459800705314">
        <ele>134.72190000000001</ele>
        <time>2005-11-20T11:06:46Z</time>
      </trkpt>
      <trkpt lat="44.442242011427879" lon="11.098578572273254">
        <ele>135.6831</ele>
        <time>2005-11-20T11:06:43Z</time>
      </trkpt>
      <trkpt lat="44.442236060276628" lon="11.098626097664237">
        <ele>135.6831</ele>
        <time>2005-11-20T11:06:42Z</time>
      </trkpt>
      <trkpt lat="44.442207477986813" lon="11.099185589700937">
        <ele>140.00919999999999</ele>
        <time>2005-11-20T11:06:37Z</time>
      </trkpt>
      <trkpt lat="44.442283501848578" lon="11.099768131971359">
        <ele>143.37370000000001</ele>
        <time>2005-11-20T11:06:33Z</time>
      </trkpt>
      <trkpt lat="44.442358603700995" lon="11.100359056144953">
        <ele>146.73840000000001</ele>
        <time>2005-11-20T11:06:29Z</time>
      </trkpt>
      <trkpt lat="44.442394813522696" lon="11.100648902356625">
        <ele>147.21899999999999</ele>
        <time>2005-11-20T11:06:27Z</time>
      </trkpt>
      <trkpt lat="44.44261634722352" lon="11.100900191813707">
        <ele>149.6223</ele>
        <time>2005-11-20T11:06:24Z</time>
      </trkpt>
      <trkpt lat="44.442790523171425" lon="11.100999768823385">
        <ele>150.10300000000001</ele>
        <time>2005-11-20T11:06:22Z</time>
      </trkpt>
      <trkpt lat="44.442876689136028" lon="11.101048970595002">
        <ele>151.0642</ele>
        <time>2005-11-20T11:06:21Z</time>
      </trkpt>
      <trkpt lat="44.443303914740682" lon="11.101385839283466">
        <ele>152.50630000000001</ele>
        <time>2005-11-20T11:06:16Z</time>
      </trkpt>
      <trkpt lat="44.443400725722313" lon="11.101631093770266">
        <ele>153.46770000000001</ele>
        <time>2005-11-20T11:06:14Z</time>
      </trkpt>
      <trkpt lat="44.443506421521306" lon="11.102018756791949">
        <ele>156.35159999999999</ele>
        <time>2005-11-20T11:06:11Z</time>
      </trkpt>
      <trkpt lat="44.44354179315269" lon="11.10214825719595">
        <ele>157.31290000000001</ele>
        <time>2005-11-20T11:06:10Z</time>
      </trkpt>
      <trkpt lat="44.443829627707601" lon="11.102626528590918">
        <ele>160.1969</ele>
        <time>2005-11-20T11:06:05Z</time>
      </trkpt>
      <trkpt lat="44.44394588470459" lon="11.102905729785562">
        <ele>162.11949999999999</ele>
        <time>2005-11-20T11:06:02Z</time>
      </trkpt>
      <trkpt lat="44.443718986585736" lon="11.103039504960179">
        <ele>164.0421</ele>
        <time>2005-11-20T11:05:59Z</time>
      </trkpt>
      <trkpt lat="44.443239625543356" lon="11.10255922190845">
        <ele>167.4067</ele>
        <time>2005-11-20T11:05:53Z</time>
      </trkpt>
      <trkpt lat="44.443112388253212" lon="11.102330144494772">
        <ele>167.88730000000001</ele>
        <time>2005-11-20T11:05:51Z</time>
      </trkpt>
      <trkpt lat="44.442985402420163" lon="11.102101402357221">
        <ele>169.3295</ele>
        <time>2005-11-20T11:05:49Z</time>
      </trkpt>
      <trkpt lat="44.442510986700654" lon="11.102252025157213">
        <ele>172.69399999999999</ele>
        <time>2005-11-20T11:05:44Z</time>
      </trkpt>
      <trkpt lat="44.442303786054254" lon="11.102828616276383">
        <ele>176.05860000000001</ele>
        <time>2005-11-20T11:05:40Z</time>
      </trkpt>
      <trkpt lat="44.442248214036226" lon="11.102967588230968">
        <ele>177.02000000000001</ele>
        <time>2005-11-20T11:05:39Z</time>
      </trkpt>
      <trkpt lat="44.441785784438252" lon="11.103406297042966">
        <ele>179.90379999999999</ele>
        <time>2005-11-20T11:05:34Z</time>
      </trkpt>
      <trkpt lat="44.441427960991859" lon="11.10343873500824">
        <ele>182.7878</ele>
        <time>2005-11-20T11:05:31Z</time>
      </trkpt>
      <trkpt lat="44.441191675141454" lon="11.103520877659321">
        <ele>184.22989999999999</ele>
        <time>2005-11-20T11:05:29Z</time>
      </trkpt>
      <trkpt lat="44.440903421491385" lon="11.10381156206131">
        <ele>185.67179999999999</ele>
        <time>2005-11-20T11:05:26Z</time>
      </trkpt>
      <trkpt lat="44.440741566941142" lon="11.104042902588844">
        <ele>187.59440000000001</ele>
        <time>2005-11-20T11:05:24Z</time>
      </trkpt>
      <trkpt lat="44.440502850338817" lon="11.104383794590831">
        <ele>190.47839999999999</ele>
        <time>2005-11-20T11:05:21Z</time>
      </trkpt>
      <trkpt lat="44.440327836200595" lon="11.104576243087649">
        <ele>191.9203</ele>
        <time>2005-11-20T11:05:19Z</time>
      </trkpt>
      <trkpt lat="44.440050311386585" lon="11.104859802871943">
        <ele>195.28489999999999</ele>
        <time>2005-11-20T11:05:16Z</time>
      </trkpt>
      <trkpt lat="44.439957272261381" lon="11.104954937472939">
        <ele>195.28489999999999</ele>
        <time>2005-11-20T11:05:15Z</time>
      </trkpt>
      <trkpt lat="44.439415214583278" lon="11.105508897453547">
        <ele>200.0917</ele>
        <time>2005-11-20T11:05:09Z</time>
      </trkpt>
      <trkpt lat="44.439067030325532" lon="11.105864960700274">
        <ele>203.4562</ele>
        <time>2005-11-20T11:05:05Z</time>
      </trkpt>
      <trkpt lat="44.438979104161263" lon="11.105954898521304">
        <ele>203.4562</ele>
        <time>2005-11-20T11:05:04Z</time>
      </trkpt>
      <trkpt lat="44.438804592937231" lon="11.106133181601763">
        <ele>204.41749999999999</ele>
        <time>2005-11-20T11:05:02Z</time>
      </trkpt>
      <trkpt lat="44.438436459749937" lon="11.106439121067524">
        <ele>206.82069999999999</ele>
        <time>2005-11-20T11:04:58Z</time>
      </trkpt>
      <trkpt lat="44.437808906659484" lon="11.106671299785376">
        <ele>209.22409999999999</ele>
        <time>2005-11-20T11:04:52Z</time>
      </trkpt>
      <trkpt lat="44.437712263315916" lon="11.106729302555323">
        <ele>209.22409999999999</ele>
        <time>2005-11-20T11:04:51Z</time>
      </trkpt>
      <trkpt lat="44.437140701338649" lon="11.107050161808729">
        <ele>213.0693</ele>
        <time>2005-11-20T11:04:45Z</time>
      </trkpt>
      <trkpt lat="44.436714062467217" lon="11.107299104332924">
        <ele>215.95320000000001</ele>
        <time>2005-11-20T11:04:40Z</time>
      </trkpt>
      <trkpt lat="44.436251716688275" lon="11.107932524755597">
        <ele>218.35659999999999</ele>
        <time>2005-11-20T11:04:30Z</time>
      </trkpt>
      <trkpt lat="44.436101596802473" lon="11.10815548337996">
        <ele>218.35659999999999</ele>
        <time>2005-11-20T11:04:25Z</time>
      </trkpt>
      <trkpt lat="44.435444371774793" lon="11.108800051733851">
        <ele>215.4727</ele>
        <time>2005-11-20T11:04:09Z</time>
      </trkpt>
      <trkpt lat="44.43454859778285" lon="11.109429784119129">
        <ele>214.5112</ele>
        <time>2005-11-20T11:03:51Z</time>
      </trkpt>
      <trkpt lat="44.433918278664351" lon="11.109848544001579">
        <ele>214.5112</ele>
        <time>2005-11-20T11:03:38Z</time>
      </trkpt>
      <trkpt lat="44.433729769662023" lon="11.10987544991076">
        <ele>214.5112</ele>
        <time>2005-11-20T11:03:34Z</time>
      </trkpt>
      <trkpt lat="44.433608399704099" lon="11.109849130734801">
        <ele>214.03059999999999</ele>
        <time>2005-11-20T11:03:31Z</time>
      </trkpt>
      <trkpt lat="44.433083608746529" lon="11.109618796035647">
        <ele>212.108</ele>
        <time>2005-11-20T11:03:17Z</time>
      </trkpt>
      <trkpt lat="44.432618664577603" lon="11.109378738328815">
        <ele>209.70480000000001</ele>
        <time>2005-11-20T11:03:06Z</time>
      </trkpt>
      <trkpt lat="44.431936629116535" lon="11.109026782214642">
        <ele>207.3014</ele>
        <time>2005-11-20T11:02:53Z</time>
      </trkpt>
      <trkpt lat="44.431090308353305" lon="11.108904406428337">
        <ele>205.8595</ele>
        <time>2005-11-20T11:02:39Z</time>
      </trkpt>
      <trkpt lat="44.429555078968406" lon="11.108701145276427">
        <ele>203.93690000000001</ele>
        <time>2005-11-20T11:02:12Z</time>
      </trkpt>
      <trkpt lat="44.428740190342069" lon="11.108305351808667">
        <ele>202.4949</ele>
        <time>2005-11-20T11:01:56Z</time>
      </trkpt>
      <trkpt lat="44.428047761321068" lon="11.108028665184975">
        <ele>199.61080000000001</ele>
        <time>2005-11-20T11:01:40Z</time>
      </trkpt>
      <trkpt lat="44.427437139675021" lon="11.107778213918209">
        <ele>196.24629999999999</ele>
        <time>2005-11-20T11:01:25Z</time>
      </trkpt>
      <trkpt lat="44.42702223546803" lon="11.107506137341261">
        <ele>192.8817</ele>
        <time>2005-11-20T11:01:13Z</time>
      </trkpt>
      <trkpt lat="44.42656634375453" lon="11.107171615585685">
        <ele>190.47839999999999</ele>
        <time>2005-11-20T11:01:01Z</time>
      </trkpt>
      <trkpt lat="44.426072482019663" lon="11.106981765478849">
        <ele>189.517</ele>
        <time>2005-11-20T11:00:52Z</time>
      </trkpt>
      <trkpt lat="44.425527574494481" lon="11.106739109382033">
        <ele>189.517</ele>
        <time>2005-11-20T11:00:45Z</time>
      </trkpt>
      <trkpt lat="44.425374940037727" lon="11.10658060759306">
        <ele>189.99770000000001</ele>
        <time>2005-11-20T11:00:43Z</time>
      </trkpt>
      <trkpt lat="44.424742525443435" lon="11.105923885479569">
        <ele>193.3623</ele>
        <time>2005-11-20T11:00:35Z</time>
      </trkpt>
      <trkpt lat="44.424335835501552" lon="11.105550639331341">
        <ele>196.24629999999999</ele>
        <time>2005-11-20T11:00:30Z</time>
      </trkpt>
      <trkpt lat="44.424163335934281" lon="11.105438489466906">
        <ele>196.7269</ele>
        <time>2005-11-20T11:00:28Z</time>
      </trkpt>
      <trkpt lat="44.423668552190065" lon="11.105116875842214">
        <ele>201.05289999999999</ele>
        <time>2005-11-20T11:00:22Z</time>
      </trkpt>
      <trkpt lat="44.423321289941669" lon="11.104679172858596">
        <ele>201.53360000000001</ele>
        <time>2005-11-20T11:00:17Z</time>
      </trkpt>
      <trkpt lat="44.423053907230496" lon="11.104304753243923">
        <ele>202.4949</ele>
        <time>2005-11-20T11:00:13Z</time>
      </trkpt>
      <trkpt lat="44.422485614195466" lon="11.103635709732771">
        <ele>205.8595</ele>
        <time>2005-11-20T11:00:05Z</time>
      </trkpt>
      <trkpt lat="44.421911789104342" lon="11.103132795542479">
        <ele>208.2628</ele>
        <time>2005-11-20T10:59:57Z</time>
      </trkpt>
      <trkpt lat="44.421174684539437" lon="11.102545224130154">
        <ele>210.18539999999999</ele>
        <time>2005-11-20T10:59:45Z</time>
      </trkpt>
      <trkpt lat="44.420777717605233" lon="11.101845167577267">
        <ele>210.18539999999999</ele>
        <time>2005-11-20T10:59:35Z</time>
      </trkpt>
      <trkpt lat="44.420704292133451" lon="11.101566134020686">
        <ele>209.22409999999999</ele>
        <time>2005-11-20T10:59:32Z</time>
      </trkpt>
      <trkpt lat="44.42039592191577" lon="11.100784186273813">
        <ele>209.22409999999999</ele>
        <time>2005-11-20T10:59:24Z</time>
      </trkpt>
      <trkpt lat="44.419792843982577" lon="11.100085638463497">
        <ele>210.18539999999999</ele>
        <time>2005-11-20T10:59:15Z</time>
      </trkpt>
      <trkpt lat="44.418973764404655" lon="11.099328836426139">
        <ele>213.0693</ele>
        <time>2005-11-20T10:59:04Z</time>
      </trkpt>
      <trkpt lat="44.418194079771638" lon="11.098678568378091">
        <ele>215.95320000000001</ele>
        <time>2005-11-20T10:58:53Z</time>
      </trkpt>
      <trkpt lat="44.417513469234109" lon="11.098151179030538">
        <ele>216.91470000000001</ele>
        <time>2005-11-20T10:58:42Z</time>
      </trkpt>
      <trkpt lat="44.416834618896246" lon="11.097924532368779">
        <ele>215.4727</ele>
        <time>2005-11-20T10:58:31Z</time>
      </trkpt>
      <trkpt lat="44.416722636669874" lon="11.09783124178648">
        <ele>215.4727</ele>
        <time>2005-11-20T10:58:29Z</time>
      </trkpt>
      <trkpt lat="44.41574715077877" lon="11.096947705373168">
        <ele>215.95320000000001</ele>
        <time>2005-11-20T10:58:15Z</time>
      </trkpt>
      <trkpt lat="44.414895381778479" lon="11.096072299405932">
        <ele>218.8373</ele>
        <time>2005-11-20T10:58:03Z</time>
      </trkpt>
      <trkpt lat="44.414017712697387" lon="11.095177363604307">
        <ele>221.72120000000001</ele>
        <time>2005-11-20T10:57:49Z</time>
      </trkpt>
      <trkpt lat="44.413248421624303" lon="11.094188299030066">
        <ele>223.6438</ele>
        <time>2005-11-20T10:57:34Z</time>
      </trkpt>
      <trkpt lat="44.412676775828004" lon="11.093606175854802">
        <ele>222.20179999999999</ele>
        <time>2005-11-20T10:57:20Z</time>
      </trkpt>
      <trkpt lat="44.412015276029706" lon="11.092931348830462">
        <ele>219.31800000000001</ele>
        <time>2005-11-20T10:57:02Z</time>
      </trkpt>
      <trkpt lat="44.411479504778981" lon="11.092357104644179">
        <ele>215.4727</ele>
        <time>2005-11-20T10:56:49Z</time>
      </trkpt>
      <trkpt lat="44.410726558417082" lon="11.091550346463919">
        <ele>214.03059999999999</ele>
        <time>2005-11-20T10:56:32Z</time>
      </trkpt>
      <trkpt lat="44.410062460228801" lon="11.09082673676312">
        <ele>212.58860000000001</ele>
        <time>2005-11-20T10:56:18Z</time>
      </trkpt>
      <trkpt lat="44.409195855259895" lon="11.08993012458086">
        <ele>210.666</ele>
        <time>2005-11-20T10:56:02Z</time>
      </trkpt>
      <trkpt lat="44.409023271873593" lon="11.08976986259222">
        <ele>212.108</ele>
        <time>2005-11-20T10:55:59Z</time>
      </trkpt>
      <trkpt lat="44.408139400184155" lon="11.088923625648022">
        <ele>211.62739999999999</ele>
        <time>2005-11-20T10:55:44Z</time>
      </trkpt>
      <trkpt lat="44.407439846545458" lon="11.088068503886461">
        <ele>212.58860000000001</ele>
        <time>2005-11-20T10:55:32Z</time>
      </trkpt>
      <trkpt lat="44.40705000422895" lon="11.087505407631397">
        <ele>214.5112</ele>
        <time>2005-11-20T10:55:25Z</time>
      </trkpt>
      <trkpt lat="44.406994096934795" lon="11.087424606084824">
        <ele>214.5112</ele>
        <time>2005-11-20T10:55:24Z</time>
      </trkpt>
      <trkpt lat="44.406425468623638" lon="11.086599994450808">
        <ele>217.876</ele>
        <time>2005-11-20T10:55:14Z</time>
      </trkpt>
      <trkpt lat="44.405686855316162" lon="11.085336171090603">
        <ele>219.79859999999999</ele>
        <time>2005-11-20T10:55:00Z</time>
      </trkpt>
      <trkpt lat="44.405054440721869" lon="11.084253983572125">
        <ele>223.6438</ele>
        <time>2005-11-20T10:54:48Z</time>
      </trkpt>
      <trkpt lat="44.404391348361969" lon="11.083114882931113">
        <ele>225.08590000000001</ele>
        <time>2005-11-20T10:54:34Z</time>
      </trkpt>
      <trkpt lat="44.403530610725284" lon="11.082278368994594">
        <ele>227.0085</ele>
        <time>2005-11-20T10:54:21Z</time>
      </trkpt>
      <trkpt lat="44.402621006593108" lon="11.081502623856068">
        <ele>229.89230000000001</ele>
        <time>2005-11-20T10:54:07Z</time>
      </trkpt>
      <trkpt lat="44.401475116610527" lon="11.080444157123566">
        <ele>232.7765</ele>
        <time>2005-11-20T10:53:51Z</time>
      </trkpt>
      <trkpt lat="44.400843121111393" lon="11.079652486369014">
        <ele>234.2184</ele>
        <time>2005-11-20T10:53:41Z</time>
      </trkpt>
      <trkpt lat="44.400789393112063" lon="11.07956925407052">
        <ele>234.2184</ele>
        <time>2005-11-20T10:53:40Z</time>
      </trkpt>
      <trkpt lat="44.400040721520782" lon="11.078396374359727">
        <ele>235.66030000000001</ele>
        <time>2005-11-20T10:53:26Z</time>
      </trkpt>
      <trkpt lat="44.399691447615623" lon="11.07784048654139">
        <ele>237.10230000000001</ele>
        <time>2005-11-20T10:53:20Z</time>
      </trkpt>
      <trkpt lat="44.399391124024987" lon="11.077520633116364">
        <ele>239.0249</ele>
        <time>2005-11-20T10:53:16Z</time>
      </trkpt>
      <trkpt lat="44.398904051631689" lon="11.077328184619546">
        <ele>240.46700000000001</ele>
        <time>2005-11-20T10:53:10Z</time>
      </trkpt>
      <trkpt lat="44.397878358140588" lon="11.076755030080676">
        <ele>242.3896</ele>
        <time>2005-11-20T10:52:57Z</time>
      </trkpt>
      <trkpt lat="44.397275531664491" lon="11.076271813362837">
        <ele>244.7928</ele>
        <time>2005-11-20T10:52:48Z</time>
      </trkpt>
      <trkpt lat="44.397200681269169" lon="11.076097134500742">
        <ele>244.7928</ele>
        <time>2005-11-20T10:52:46Z</time>
      </trkpt>
      <trkpt lat="44.396768175065517" lon="11.075275205075741">
        <ele>190.959</ele>
        <time>2005-11-20T08:09:49Z</time>
      </trkpt>
      <trkpt lat="44.396679829806089" lon="11.075170934200287">
        <ele>191.43960000000001</ele>
        <time>2005-11-20T08:09:54Z</time>
      </trkpt>
      <trkpt lat="44.396449578925967" lon="11.075510149821639">
        <ele>191.9203</ele>
        <time>2005-11-20T08:10:04Z</time>
      </trkpt>
      <trkpt lat="44.396145148202777" lon="11.075875433161855">
        <ele>192.8817</ele>
        <time>2005-11-20T08:10:16Z</time>
      </trkpt>
      <trkpt lat="44.395845578983426" lon="11.076249852776527">
        <ele>192.8817</ele>
        <time>2005-11-20T08:10:27Z</time>
      </trkpt>
      <trkpt lat="44.395451545715332" lon="11.076407432556152">
        <ele>191.9203</ele>
        <time>2005-11-20T08:10:36Z</time>
      </trkpt>
      <trkpt lat="44.395158682018518" lon="11.076319506391883">
        <ele>189.99770000000001</ele>
        <time>2005-11-20T08:10:40Z</time>
      </trkpt>
      <trkpt lat="44.394427360966802" lon="11.076041730120778">
        <ele>189.517</ele>
        <time>2005-11-20T08:10:53Z</time>
      </trkpt>
      <trkpt lat="44.393951771780849" lon="11.075825393199921">
        <ele>190.959</ele>
        <time>2005-11-20T08:11:05Z</time>
      </trkpt>
      <trkpt lat="44.393483307212591" lon="11.07565289363265">
        <ele>192.40110000000001</ele>
        <time>2005-11-20T08:11:20Z</time>
      </trkpt>
      <trkpt lat="44.393022051081061" lon="11.075385678559542">
        <ele>195.28489999999999</ele>
        <time>2005-11-20T08:11:37Z</time>
      </trkpt>
      <trkpt lat="44.392630197107792" lon="11.075172023847699">
        <ele>198.16890000000001</ele>
        <time>2005-11-20T08:11:51Z</time>
      </trkpt>
      <trkpt lat="44.392332304269075" lon="11.074978485703468">
        <ele>201.53360000000001</ele>
        <time>2005-11-20T08:12:03Z</time>
      </trkpt>
      <trkpt lat="44.391884123906493" lon="11.074687046930194">
        <ele>204.41749999999999</ele>
        <time>2005-11-20T08:12:24Z</time>
      </trkpt>
      <trkpt lat="44.391850680112839" lon="11.074664751067758">
        <ele>204.41749999999999</ele>
        <time>2005-11-20T08:12:35Z</time>
      </trkpt>
      <trkpt lat="44.391850680112839" lon="11.074664751067758">
        <ele>204.41749999999999</ele>
        <time>2005-11-20T08:12:45Z</time>
      </trkpt>
      <trkpt lat="44.391850680112839" lon="11.074664751067758">
        <ele>204.41749999999999</ele>
        <time>2005-11-20T08:13:00Z</time>
      </trkpt>
      <trkpt lat="44.391850680112839" lon="11.074664751067758">
        <ele>207.3014</ele>
        <time>2005-11-20T08:14:02Z</time>
      </trkpt>
      <trkpt lat="44.391850680112839" lon="11.074664751067758">
        <ele>207.78210000000001</ele>
        <time>2005-11-20T08:14:22Z</time>
      </trkpt>
      <trkpt lat="44.391850680112839" lon="11.074664751067758">
        <ele>208.2628</ele>
        <time>2005-11-20T08:14:43Z</time>
      </trkpt>
      <trkpt lat="44.391850680112839" lon="11.074664751067758">
        <ele>208.74340000000001</ele>
        <time>2005-11-20T08:14:52Z</time>
      </trkpt>
      <trkpt lat="44.391850680112839" lon="11.074664751067758">
        <ele>209.22409999999999</ele>
        <time>2005-11-20T08:15:08Z</time>
      </trkpt>
      <trkpt lat="44.391631912440062" lon="11.074529718607664">
        <ele>209.22409999999999</ele>
        <time>2005-11-20T08:15:17Z</time>
      </trkpt>
      <trkpt lat="44.390704203397036" lon="11.074181869626045">
        <ele>210.666</ele>
        <time>2005-11-20T08:16:29Z</time>
      </trkpt>
      <trkpt lat="44.390605799853802" lon="11.074142893776298">
        <ele>210.666</ele>
        <time>2005-11-20T08:16:37Z</time>
      </trkpt>
      <trkpt lat="44.390070280060172" lon="11.073866877704859">
        <ele>214.5112</ele>
        <time>2005-11-20T08:18:28Z</time>
      </trkpt>
      <trkpt lat="44.389799796044827" lon="11.073833853006363">
        <ele>214.99189999999999</ele>
        <time>2005-11-20T08:18:43Z</time>
      </trkpt>
      <trkpt lat="44.389673816040158" lon="11.073789596557617">
        <ele>215.4727</ele>
        <time>2005-11-20T08:18:48Z</time>
      </trkpt>
      <trkpt lat="44.389414647594094" lon="11.073566805571318">
        <ele>215.95320000000001</ele>
        <time>2005-11-20T08:19:00Z</time>
      </trkpt>
      <trkpt lat="44.389120358973742" lon="11.073219794780016">
        <ele>215.95320000000001</ele>
        <time>2005-11-20T08:19:15Z</time>
      </trkpt>
      <trkpt lat="44.38899421133101" lon="11.073047881945968">
        <ele>216.91470000000001</ele>
        <time>2005-11-20T08:19:24Z</time>
      </trkpt>
      <trkpt lat="44.388889605179429" lon="11.072965739294887">
        <ele>217.3954</ele>
        <time>2005-11-20T08:19:31Z</time>
      </trkpt>
      <trkpt lat="44.388825902715325" lon="11.072998009622097">
        <ele>217.3954</ele>
        <time>2005-11-20T08:19:35Z</time>
      </trkpt>
      <trkpt lat="44.388596406206489" lon="11.073109488934278">
        <ele>218.35659999999999</ele>
        <time>2005-11-20T08:19:48Z</time>
      </trkpt>
      <trkpt lat="44.388187788426876" lon="11.073209652677178">
        <ele>220.2792</ele>
        <time>2005-11-20T08:20:03Z</time>
      </trkpt>
      <trkpt lat="44.387733908370137" lon="11.073263296857476">
        <ele>222.20179999999999</ele>
        <time>2005-11-20T08:20:18Z</time>
      </trkpt>
      <trkpt lat="44.387186318635941" lon="11.073327753692865">
        <ele>223.6438</ele>
        <time>2005-11-20T08:20:35Z</time>
      </trkpt>
      <trkpt lat="44.386542169377208" lon="11.073390785604715">
        <ele>225.56649999999999</ele>
        <time>2005-11-20T08:20:54Z</time>
      </trkpt>
      <trkpt lat="44.385897517204285" lon="11.073454152792692">
        <ele>227.48910000000001</ele>
        <time>2005-11-20T08:21:13Z</time>
      </trkpt>
      <trkpt lat="44.38539401628077" lon="11.073506791144609">
        <ele>228.4504</ele>
        <time>2005-11-20T08:21:28Z</time>
      </trkpt>
      <trkpt lat="44.384813820943236" lon="11.073565129190683">
        <ele>229.89230000000001</ele>
        <time>2005-11-20T08:21:45Z</time>
      </trkpt>
      <trkpt lat="44.384249970316887" lon="11.073629837483168">
        <ele>231.81489999999999</ele>
        <time>2005-11-20T08:22:01Z</time>
      </trkpt>
      <trkpt lat="44.383770022541285" lon="11.073658922687173">
        <ele>232.7765</ele>
        <time>2005-11-20T08:22:15Z</time>
      </trkpt>
      <trkpt lat="44.383021183311939" lon="11.073520956560969">
        <ele>234.69909999999999</ele>
        <time>2005-11-20T08:22:37Z</time>
      </trkpt>
      <trkpt lat="44.382365383207798" lon="11.073208563029766">
        <ele>236.6217</ele>
        <time>2005-11-20T08:22:57Z</time>
      </trkpt>
      <trkpt lat="44.381746547296643" lon="11.07280514203012">
        <ele>238.06360000000001</ele>
        <time>2005-11-20T08:23:17Z</time>
      </trkpt>
      <trkpt lat="44.38114833086729" lon="11.07242058031261">
        <ele>239.50550000000001</ele>
        <time>2005-11-20T08:23:37Z</time>
      </trkpt>
      <trkpt lat="44.380781119689345" lon="11.072175912559032">
        <ele>240.94759999999999</ele>
        <time>2005-11-20T08:23:50Z</time>
      </trkpt>
      <trkpt lat="44.38019597902894" lon="11.071795038878918">
        <ele>242.3896</ele>
        <time>2005-11-20T08:24:10Z</time>
      </trkpt>
      <trkpt lat="44.379587369039655" lon="11.071401592344046">
        <ele>243.83150000000001</ele>
        <time>2005-11-20T08:24:30Z</time>
      </trkpt>
      <trkpt lat="44.379126615822315" lon="11.07103580608964">
        <ele>245.7542</ele>
        <time>2005-11-20T08:24:46Z</time>
      </trkpt>
      <trkpt lat="44.378762673586607" lon="11.070685693994164">
        <ele>246.71549999999999</ele>
        <time>2005-11-20T08:25:00Z</time>
      </trkpt>
      <trkpt lat="44.378323964774609" lon="11.07024279423058">
        <ele>248.63820000000001</ele>
        <time>2005-11-20T08:25:17Z</time>
      </trkpt>
      <trkpt lat="44.377901433035731" lon="11.069823699072003">
        <ele>250.08019999999999</ele>
        <time>2005-11-20T08:25:33Z</time>
      </trkpt>
      <trkpt lat="44.377476302906871" lon="11.069393455982208">
        <ele>252.00280000000001</ele>
        <time>2005-11-20T08:25:49Z</time>
      </trkpt>
      <trkpt lat="44.377032648772001" lon="11.068948712199926">
        <ele>252.964</ele>
        <time>2005-11-20T08:26:06Z</time>
      </trkpt>
      <trkpt lat="44.376593604683876" lon="11.068515535444021">
        <ele>254.88659999999999</ele>
        <time>2005-11-20T08:26:22Z</time>
      </trkpt>
      <trkpt lat="44.376174928620458" lon="11.068089064210653">
        <ele>256.32870000000003</ele>
        <time>2005-11-20T08:26:38Z</time>
      </trkpt>
      <trkpt lat="44.375906204804778" lon="11.06778153218329">
        <ele>257.77080000000001</ele>
        <time>2005-11-20T08:26:51Z</time>
      </trkpt>
      <trkpt lat="44.37552273273468" lon="11.067453883588314">
        <ele>257.29000000000002</ele>
        <time>2005-11-20T08:27:06Z</time>
      </trkpt>
      <trkpt lat="44.375121826305985" lon="11.067246347665787">
        <ele>258.7319</ele>
        <time>2005-11-20T08:27:20Z</time>
      </trkpt>
      <trkpt lat="44.374512210488319" lon="11.067214161157608">
        <ele>259.6934</ele>
        <time>2005-11-20T08:27:38Z</time>
      </trkpt>
      <trkpt lat="44.373866887763143" lon="11.067235451191664">
        <ele>261.61599999999999</ele>
        <time>2005-11-20T08:27:58Z</time>
      </trkpt>
      <trkpt lat="44.373431783169508" lon="11.067272247746587">
        <ele>264.98059999999998</ele>
        <time>2005-11-20T08:28:12Z</time>
      </trkpt>
      <trkpt lat="44.373131291940808" lon="11.067488500848413">
        <ele>266.90320000000003</ele>
        <time>2005-11-20T08:28:25Z</time>
      </trkpt>
      <trkpt lat="44.372997181490064" lon="11.067548096179962">
        <ele>267.38389999999998</ele>
        <time>2005-11-20T08:28:31Z</time>
      </trkpt>
      <trkpt lat="44.372757961973548" lon="11.067967275157571">
        <ele>266.42250000000001</ele>
        <time>2005-11-20T08:28:43Z</time>
      </trkpt>
      <trkpt lat="44.372410196810961" lon="11.068566245958209">
        <ele>267.86450000000002</ele>
        <time>2005-11-20T08:29:00Z</time>
      </trkpt>
      <trkpt lat="44.37221179716289" lon="11.069118864834309">
        <ele>270.26769999999999</ele>
        <time>2005-11-20T08:29:16Z</time>
      </trkpt>
      <trkpt lat="44.372066622599959" lon="11.069678608328104">
        <ele>273.15190000000001</ele>
        <time>2005-11-20T08:29:33Z</time>
      </trkpt>
      <trkpt lat="44.372010044753551" lon="11.070433566346765">
        <ele>276.03559999999999</ele>
        <time>2005-11-20T08:29:55Z</time>
      </trkpt>
      <trkpt lat="44.371948353946209" lon="11.070957854390144">
        <ele>277.95830000000001</ele>
        <time>2005-11-20T08:30:09Z</time>
      </trkpt>
      <trkpt lat="44.3718521296978" lon="11.0715351998806">
        <ele>279.40030000000002</ele>
        <time>2005-11-20T08:30:24Z</time>
      </trkpt>
      <trkpt lat="44.371767304837704" lon="11.07194809243083">
        <ele>282.28429999999997</ele>
        <time>2005-11-20T08:30:36Z</time>
      </trkpt>
      <trkpt lat="44.371615508571267" lon="11.072471374645829">
        <ele>285.16820000000001</ele>
        <time>2005-11-20T08:30:54Z</time>
      </trkpt>
      <trkpt lat="44.37150520272553" lon="11.072698272764683">
        <ele>287.57139999999998</ele>
        <time>2005-11-20T08:31:12Z</time>
      </trkpt>
      <trkpt lat="44.371414594352245" lon="11.07287940569222">
        <ele>290.4556</ele>
        <time>2005-11-20T08:31:22Z</time>
      </trkpt>
      <trkpt lat="44.371301271021366" lon="11.073095910251141">
        <ele>293.33940000000001</ele>
        <time>2005-11-20T08:31:34Z</time>
      </trkpt>
      <trkpt lat="44.371171519160271" lon="11.073310067877173">
        <ele>296.2235</ele>
        <time>2005-11-20T08:31:45Z</time>
      </trkpt>
      <trkpt lat="44.371031289920211" lon="11.073455074802041">
        <ele>299.58800000000002</ele>
        <time>2005-11-20T08:31:55Z</time>
      </trkpt>
      <trkpt lat="44.371000109240413" lon="11.073476364836097">
        <ele>300.54930000000002</ele>
        <time>2005-11-20T08:31:57Z</time>
      </trkpt>
      <trkpt lat="44.37072241678834" lon="11.073733773082495">
        <ele>303.91390000000001</ele>
        <time>2005-11-20T08:32:17Z</time>
      </trkpt>
      <trkpt lat="44.370498033240438" lon="11.073965951800346">
        <ele>306.79790000000003</ele>
        <time>2005-11-20T08:32:34Z</time>
      </trkpt>
      <trkpt lat="44.370355121791363" lon="11.074184719473124">
        <ele>310.16250000000002</ele>
        <time>2005-11-20T08:32:47Z</time>
      </trkpt>
      <trkpt lat="44.37034523114562" lon="11.07420215383172">
        <ele>310.16250000000002</ele>
        <time>2005-11-20T08:32:48Z</time>
      </trkpt>
      <trkpt lat="44.370185388252139" lon="11.074541369453073">
        <ele>313.04649999999998</ele>
        <time>2005-11-20T08:33:06Z</time>
      </trkpt>
      <trkpt lat="44.370323522016406" lon="11.074542040005326">
        <ele>315.44979999999998</ele>
        <time>2005-11-20T08:33:15Z</time>
      </trkpt>
      <trkpt lat="44.370493590831757" lon="11.07429938390851">
        <ele>318.8143</ele>
        <time>2005-11-20T08:33:29Z</time>
      </trkpt>
      <trkpt lat="44.370770948007703" lon="11.074185306206346">
        <ele>320.7371</ele>
        <time>2005-11-20T08:33:44Z</time>
      </trkpt>
      <trkpt lat="44.371022488921881" lon="11.074207937344909">
        <ele>323.62099999999998</ele>
        <time>2005-11-20T08:33:58Z</time>
      </trkpt>
      <trkpt lat="44.371067751199007" lon="11.074272310361266">
        <ele>324.58229999999998</ele>
        <time>2005-11-20T08:34:01Z</time>
      </trkpt>
      <trkpt lat="44.370962893590331" lon="11.074434416368604">
        <ele>326.98559999999998</ele>
        <time>2005-11-20T08:34:09Z</time>
      </trkpt>
      <trkpt lat="44.370919894427061" lon="11.074445815756917">
        <ele>327.46620000000001</ele>
        <time>2005-11-20T08:34:11Z</time>
      </trkpt>
      <trkpt lat="44.370694840326905" lon="11.074672797694802">
        <ele>329.86950000000002</ele>
        <time>2005-11-20T08:34:23Z</time>
      </trkpt>
      <trkpt lat="44.370630886405706" lon="11.075088120996952">
        <ele>331.7921</ele>
        <time>2005-11-20T08:34:37Z</time>
      </trkpt>
      <trkpt lat="44.370604399591684" lon="11.075440496206284">
        <ele>335.1567</ele>
        <time>2005-11-20T08:34:49Z</time>
      </trkpt>
      <trkpt lat="44.37045319005847" lon="11.075830673798919">
        <ele>337.56009999999998</ele>
        <time>2005-11-20T08:35:06Z</time>
      </trkpt>
      <trkpt lat="44.370267782360315" lon="11.076064528897405">
        <ele>340.44409999999999</ele>
        <time>2005-11-20T08:35:18Z</time>
      </trkpt>
      <trkpt lat="44.370051193982363" lon="11.076358314603567">
        <ele>342.84730000000002</ele>
        <time>2005-11-20T08:35:33Z</time>
      </trkpt>
      <trkpt lat="44.36984290368855" lon="11.076589152216911">
        <ele>346.21199999999999</ele>
        <time>2005-11-20T08:35:46Z</time>
      </trkpt>
      <trkpt lat="44.369595889002085" lon="11.076879920437932">
        <ele>349.57650000000001</ele>
        <time>2005-11-20T08:36:01Z</time>
      </trkpt>
      <trkpt lat="44.369370080530643" lon="11.077111847698689">
        <ele>351.01839999999999</ele>
        <time>2005-11-20T08:36:14Z</time>
      </trkpt>
      <trkpt lat="44.369174866005778" lon="11.07731519266963">
        <ele>353.90260000000001</ele>
        <time>2005-11-20T08:36:26Z</time>
      </trkpt>
      <trkpt lat="44.36882559210062" lon="11.077558854594827">
        <ele>356.30579999999998</ele>
        <time>2005-11-20T08:36:45Z</time>
      </trkpt>
      <trkpt lat="44.368462320417166" lon="11.077690534293652">
        <ele>359.67039999999997</ele>
        <time>2005-11-20T08:37:02Z</time>
      </trkpt>
      <trkpt lat="44.368254113942385" lon="11.077804276719689">
        <ele>363.51569999999998</ele>
        <time>2005-11-20T08:37:11Z</time>
      </trkpt>
      <trkpt lat="44.36802034266293" lon="11.077955905348063">
        <ele>364.95760000000001</ele>
        <time>2005-11-20T08:37:22Z</time>
      </trkpt>
      <trkpt lat="44.367784140631557" lon="11.078374665230513">
        <ele>367.84160000000003</ele>
        <time>2005-11-20T08:37:39Z</time>
      </trkpt>
      <trkpt lat="44.367723204195499" lon="11.07876836322248">
        <ele>370.72559999999999</ele>
        <time>2005-11-20T08:37:52Z</time>
      </trkpt>
      <trkpt lat="44.367680037394166" lon="11.079204976558685">
        <ele>374.57080000000002</ele>
        <time>2005-11-20T08:38:06Z</time>
      </trkpt>
      <trkpt lat="44.367621699348092" lon="11.079744938760996">
        <ele>376.49349999999998</ele>
        <time>2005-11-20T08:38:23Z</time>
      </trkpt>
      <trkpt lat="44.367597559466958" lon="11.080188844352961">
        <ele>378.89690000000002</ele>
        <time>2005-11-20T08:38:38Z</time>
      </trkpt>
      <trkpt lat="44.367599990218878" lon="11.080540968105197">
        <ele>381.78059999999999</ele>
        <time>2005-11-20T08:38:50Z</time>
      </trkpt>
      <trkpt lat="44.367510806769133" lon="11.080994596704841">
        <ele>385.1454</ele>
        <time>2005-11-20T08:39:06Z</time>
      </trkpt>
      <trkpt lat="44.367399830371141" lon="11.081512263044715">
        <ele>388.02929999999998</ele>
        <time>2005-11-20T08:39:24Z</time>
      </trkpt>
      <trkpt lat="44.367329757660627" lon="11.081844940781593">
        <ele>391.3938</ele>
        <time>2005-11-20T08:39:36Z</time>
      </trkpt>
      <trkpt lat="44.367273766547441" lon="11.082229251042008">
        <ele>394.27800000000002</ele>
        <time>2005-11-20T08:39:50Z</time>
      </trkpt>
      <trkpt lat="44.367242166772485" lon="11.08241843059659">
        <ele>396.68119999999999</ele>
        <time>2005-11-20T08:39:57Z</time>
      </trkpt>
      <trkpt lat="44.367114510387182" lon="11.082707773894072">
        <ele>399.56509999999997</ele>
        <time>2005-11-20T08:40:09Z</time>
      </trkpt>
      <trkpt lat="44.366942346096039" lon="11.083100298419595">
        <ele>402.92970000000003</ele>
        <time>2005-11-20T08:40:25Z</time>
      </trkpt>
      <trkpt lat="44.366808068007231" lon="11.083418391644955">
        <ele>405.81369999999998</ele>
        <time>2005-11-20T08:40:38Z</time>
      </trkpt>
      <trkpt lat="44.36674595810473" lon="11.083555687218904">
        <ele>407.25560000000002</ele>
        <time>2005-11-20T08:40:44Z</time>
      </trkpt>
      <trkpt lat="44.366681417450309" lon="11.083695245906711">
        <ele>409.17829999999998</ele>
        <time>2005-11-20T08:40:50Z</time>
      </trkpt>
      <trkpt lat="44.366534566506743" lon="11.084071341902018">
        <ele>412.5428</ele>
        <time>2005-11-20T08:41:06Z</time>
      </trkpt>
      <trkpt lat="44.36649483628571" lon="11.084178294986486">
        <ele>413.98489999999998</ele>
        <time>2005-11-20T08:41:12Z</time>
      </trkpt>
      <trkpt lat="44.366411101073027" lon="11.084200758486986">
        <ele>413.98489999999998</ele>
        <time>2005-11-20T08:41:24Z</time>
      </trkpt>
      <trkpt lat="44.366399869322777" lon="11.08415256254375">
        <ele>415.42689999999999</ele>
        <time>2005-11-20T08:42:52Z</time>
      </trkpt>
      <trkpt lat="44.36637606471777" lon="11.084173265844584">
        <ele>415.42689999999999</ele>
        <time>2005-11-20T08:43:16Z</time>
      </trkpt>
      <trkpt lat="44.366215467453003" lon="11.084208972752094">
        <ele>413.98489999999998</ele>
        <time>2005-11-20T08:43:24Z</time>
      </trkpt>
      <trkpt lat="44.366216054186225" lon="11.084214840084314">
        <ele>413.5043</ele>
        <time>2005-11-20T08:43:41Z</time>
      </trkpt>
      <trkpt lat="44.366094851866364" lon="11.084268903359771">
        <ele>413.98489999999998</ele>
        <time>2005-11-20T08:44:10Z</time>
      </trkpt>
      <trkpt lat="44.365759743377566" lon="11.084371078759432">
        <ele>412.06229999999999</ele>
        <time>2005-11-20T08:44:18Z</time>
      </trkpt>
      <trkpt lat="44.365432262420654" lon="11.084586242213845">
        <ele>410.62020000000001</ele>
        <time>2005-11-20T08:44:25Z</time>
      </trkpt>
      <trkpt lat="44.365245848894119" lon="11.084470907226205">
        <ele>409.65910000000002</ele>
        <time>2005-11-20T08:44:30Z</time>
      </trkpt>
      <trkpt lat="44.365206118673086" lon="11.084371581673622">
        <ele>409.65910000000002</ele>
        <time>2005-11-20T08:44:32Z</time>
      </trkpt>
      <trkpt lat="44.365196228027344" lon="11.084069749340415">
        <ele>411.101</ele>
        <time>2005-11-20T08:44:39Z</time>
      </trkpt>
      <trkpt lat="44.365196228027344" lon="11.083729024976492">
        <ele>412.5428</ele>
        <time>2005-11-20T08:44:46Z</time>
      </trkpt>
      <trkpt lat="44.365013837814331" lon="11.083186129108071">
        <ele>410.13959999999997</ele>
        <time>2005-11-20T08:44:53Z</time>
      </trkpt>
      <trkpt lat="44.364809989929199" lon="11.082151466980577">
        <ele>410.62020000000001</ele>
        <time>2005-11-20T08:45:04Z</time>
      </trkpt>
      <trkpt lat="44.364827759563923" lon="11.082056919112802">
        <ele>410.13959999999997</ele>
        <time>2005-11-20T08:45:05Z</time>
      </trkpt>
      <trkpt lat="44.364880565553904" lon="11.081883162260056">
        <ele>409.17829999999998</ele>
        <time>2005-11-20T08:45:07Z</time>
      </trkpt>
      <trkpt lat="44.365065973252058" lon="11.081273965537548">
        <ele>406.29430000000002</ele>
        <time>2005-11-20T08:45:12Z</time>
      </trkpt>
      <trkpt lat="44.365024818107486" lon="11.080614225938916">
        <ele>400.04590000000002</ele>
        <time>2005-11-20T08:45:16Z</time>
      </trkpt>
      <trkpt lat="44.364945525303483" lon="11.080297054722905">
        <ele>397.64249999999998</ele>
        <time>2005-11-20T08:45:18Z</time>
      </trkpt>
      <trkpt lat="44.364865813404322" lon="11.079978290945292">
        <ele>394.27800000000002</ele>
        <time>2005-11-20T08:45:20Z</time>
      </trkpt>
      <trkpt lat="44.364555682986975" lon="11.079599428921938">
        <ele>392.83589999999998</ele>
        <time>2005-11-20T08:45:24Z</time>
      </trkpt>
      <trkpt lat="44.364369353279471" lon="11.079314108937979">
        <ele>391.87450000000001</ele>
        <time>2005-11-20T08:45:27Z</time>
      </trkpt>
      <trkpt lat="44.36429793946445" lon="11.079242695122957">
        <ele>391.3938</ele>
        <time>2005-11-20T08:45:28Z</time>
      </trkpt>
      <trkpt lat="44.363922346383333" lon="11.078814379870892">
        <ele>393.31650000000002</ele>
        <time>2005-11-20T08:45:36Z</time>
      </trkpt>
      <trkpt lat="44.363863337785006" lon="11.078735841438174">
        <ele>394.75850000000003</ele>
        <time>2005-11-20T08:45:39Z</time>
      </trkpt>
      <trkpt lat="44.363723024725914" lon="11.078631905838847">
        <ele>396.68119999999999</ele>
        <time>2005-11-20T08:45:45Z</time>
      </trkpt>
      <trkpt lat="44.363555135205388" lon="11.0785480029881">
        <ele>400.04590000000002</ele>
        <time>2005-11-20T08:45:54Z</time>
      </trkpt>
      <trkpt lat="44.363282304257154" lon="11.078523108735681">
        <ele>401.48779999999999</ele>
        <time>2005-11-20T08:46:08Z</time>
      </trkpt>
      <trkpt lat="44.363003019243479" lon="11.078599467873573">
        <ele>403.41039999999998</ele>
        <time>2005-11-20T08:46:24Z</time>
      </trkpt>
      <trkpt lat="44.362804032862186" lon="11.078433590009809">
        <ele>405.81369999999998</ele>
        <time>2005-11-20T08:46:37Z</time>
      </trkpt>
      <trkpt lat="44.362707138061523" lon="11.078124800696969">
        <ele>409.17829999999998</ele>
        <time>2005-11-20T08:46:52Z</time>
      </trkpt>
      <trkpt lat="44.362801685929298" lon="11.077919024974108">
        <ele>411.58170000000001</ele>
        <time>2005-11-20T08:47:03Z</time>
      </trkpt>
      <trkpt lat="44.362979717552662" lon="11.0776137560606">
        <ele>413.98489999999998</ele>
        <time>2005-11-20T08:47:22Z</time>
      </trkpt>
      <trkpt lat="44.363107541576028" lon="11.077394653111696">
        <ele>418.31079999999997</ele>
        <time>2005-11-20T08:47:33Z</time>
      </trkpt>
      <trkpt lat="44.363303259015083" lon="11.077059209346771">
        <ele>421.19479999999999</ele>
        <time>2005-11-20T08:47:46Z</time>
      </trkpt>
      <trkpt lat="44.363317592069507" lon="11.07688763178885">
        <ele>423.11739999999998</ele>
        <time>2005-11-20T08:47:51Z</time>
      </trkpt>
      <trkpt lat="44.363333433866501" lon="11.07661890797317">
        <ele>426.4821</ele>
        <time>2005-11-20T08:47:59Z</time>
      </trkpt>
      <trkpt lat="44.363389927893877" lon="11.076165363192558">
        <ele>428.8854</ele>
        <time>2005-11-20T08:48:17Z</time>
      </trkpt>
      <trkpt lat="44.363383054733276" lon="11.075842324644327">
        <ele>429.84660000000002</ele>
        <time>2005-11-20T08:48:31Z</time>
      </trkpt>
      <trkpt lat="44.36318339779973" lon="11.075790943577886">
        <ele>432.25</ele>
        <time>2005-11-20T08:48:43Z</time>
      </trkpt>
      <trkpt lat="44.362988518550992" lon="11.075979033485055">
        <ele>435.61450000000002</ele>
        <time>2005-11-20T08:48:56Z</time>
      </trkpt>
      <trkpt lat="44.362905956804752" lon="11.076075425371528">
        <ele>438.01780000000002</ele>
        <time>2005-11-20T08:49:02Z</time>
      </trkpt>
      <trkpt lat="44.362637735903263" lon="11.076227640733123">
        <ele>440.90190000000001</ele>
        <time>2005-11-20T08:49:18Z</time>
      </trkpt>
      <trkpt lat="44.362397594377398" lon="11.076179780066013">
        <ele>443.78579999999999</ele>
        <time>2005-11-20T08:49:31Z</time>
      </trkpt>
      <trkpt lat="44.362185280770063" lon="11.076126638799906">
        <ele>446.66969999999998</ele>
        <time>2005-11-20T08:49:44Z</time>
      </trkpt>
      <trkpt lat="44.361974308267236" lon="11.076073916628957">
        <ele>450.03440000000001</ele>
        <time>2005-11-20T08:49:56Z</time>
      </trkpt>
      <trkpt lat="44.36176685616374" lon="11.076022116467357">
        <ele>453.39890000000003</ele>
        <time>2005-11-20T08:50:06Z</time>
      </trkpt>
      <trkpt lat="44.361472651362419" lon="11.076052291318774">
        <ele>455.80220000000003</ele>
        <time>2005-11-20T08:50:22Z</time>
      </trkpt>
      <trkpt lat="44.361088089644909" lon="11.07609361410141">
        <ele>458.2056</ele>
        <time>2005-11-20T08:50:42Z</time>
      </trkpt>
      <trkpt lat="44.360884744673967" lon="11.076115407049656">
        <ele>461.5702</ele>
        <time>2005-11-20T08:50:54Z</time>
      </trkpt>
      <trkpt lat="44.360675197094679" lon="11.076137786731124">
        <ele>464.45409999999998</ele>
        <time>2005-11-20T08:51:06Z</time>
      </trkpt>
      <trkpt lat="44.360467828810215" lon="11.076069641858339">
        <ele>466.37670000000003</ele>
        <time>2005-11-20T08:51:18Z</time>
      </trkpt>
      <trkpt lat="44.360262891277671" lon="11.075894040986896">
        <ele>469.26069999999999</ele>
        <time>2005-11-20T08:51:32Z</time>
      </trkpt>
      <trkpt lat="44.359999112784863" lon="11.075797146186233">
        <ele>471.18329999999997</ele>
        <time>2005-11-20T08:51:49Z</time>
      </trkpt>
      <trkpt lat="44.359931722283363" lon="11.075772671028972">
        <ele>471.66390000000001</ele>
        <time>2005-11-20T08:51:54Z</time>
      </trkpt>
      <trkpt lat="44.359880089759827" lon="11.075753895565867">
        <ele>471.18329999999997</ele>
        <time>2005-11-20T08:51:58Z</time>
      </trkpt>
      <trkpt lat="44.359607007354498" lon="11.07572078704834">
        <ele>474.548</ele>
        <time>2005-11-20T08:52:13Z</time>
      </trkpt>
      <trkpt lat="44.359264690428972" lon="11.075785243883729">
        <ele>476.47059999999999</ele>
        <time>2005-11-20T08:52:29Z</time>
      </trkpt>
      <trkpt lat="44.358947686851025" lon="11.075861770659685">
        <ele>478.39319999999998</ele>
        <time>2005-11-20T08:52:44Z</time>
      </trkpt>
      <trkpt lat="44.358648536726832" lon="11.075934022665024">
        <ele>481.27719999999999</ele>
        <time>2005-11-20T08:52:58Z</time>
      </trkpt>
      <trkpt lat="44.358384590595961" lon="11.075997641310096">
        <ele>484.64179999999999</ele>
        <time>2005-11-20T08:53:11Z</time>
      </trkpt>
      <trkpt lat="44.358094744384289" lon="11.075877025723457">
        <ele>487.04500000000002</ele>
        <time>2005-11-20T08:53:25Z</time>
      </trkpt>
      <trkpt lat="44.357749996706843" lon="11.075686169788241">
        <ele>488.00650000000002</ele>
        <time>2005-11-20T08:53:41Z</time>
      </trkpt>
      <trkpt lat="44.357514381408691" lon="11.075558010488749">
        <ele>486.08370000000002</ele>
        <time>2005-11-20T08:53:48Z</time>
      </trkpt>
      <trkpt lat="44.357588393613696" lon="11.075389198958874">
        <ele>486.56450000000001</ele>
        <time>2005-11-20T08:53:53Z</time>
      </trkpt>
      <trkpt lat="44.357860051095486" lon="11.075020143762231">
        <ele>487.5256</ele>
        <time>2005-11-20T08:54:05Z</time>
      </trkpt>
      <trkpt lat="44.357943534851074" lon="11.074486970901489">
        <ele>489.92910000000001</ele>
        <time>2005-11-20T08:54:19Z</time>
      </trkpt>
      <trkpt lat="44.357943534851074" lon="11.073792027309537">
        <ele>491.85169999999999</ele>
        <time>2005-11-20T08:54:37Z</time>
      </trkpt>
      <trkpt lat="44.357813866809011" lon="11.073349714279175">
        <ele>495.21620000000001</ele>
        <time>2005-11-20T08:54:51Z</time>
      </trkpt>
      <trkpt lat="44.357765419408679" lon="11.073233373463154">
        <ele>496.17770000000002</ele>
        <time>2005-11-20T08:54:55Z</time>
      </trkpt>
      <trkpt lat="44.357728958129883" lon="11.07297420501709">
        <ele>498.58089999999999</ele>
        <time>2005-11-20T08:55:04Z</time>
      </trkpt>
      <trkpt lat="44.357798611745238" lon="11.072904467582703">
        <ele>499.54219999999998</ele>
        <time>2005-11-20T08:55:08Z</time>
      </trkpt>
      <trkpt lat="44.357979074120522" lon="11.072724005207419">
        <ele>502.9067</ele>
        <time>2005-11-20T08:55:17Z</time>
      </trkpt>
      <trkpt lat="44.358174037188292" lon="11.072465423494577">
        <ele>504.8295</ele>
        <time>2005-11-20T08:55:30Z</time>
      </trkpt>
      <trkpt lat="44.358270931988955" lon="11.071980865672231">
        <ele>508.19409999999999</ele>
        <time>2005-11-20T08:55:46Z</time>
      </trkpt>
      <trkpt lat="44.358278559520841" lon="11.071859914809465">
        <ele>508.67469999999997</ele>
        <time>2005-11-20T08:55:50Z</time>
      </trkpt>
      <trkpt lat="44.358159033581614" lon="11.071876846253872">
        <ele>510.59730000000002</ele>
        <time>2005-11-20T08:55:57Z</time>
      </trkpt>
      <trkpt lat="44.358139922842383" lon="11.071924958378077">
        <ele>512.0394</ele>
        <time>2005-11-20T08:55:59Z</time>
      </trkpt>
      <trkpt lat="44.357971446588635" lon="11.072152275592089">
        <ele>514.44259999999997</ele>
        <time>2005-11-20T08:56:12Z</time>
      </trkpt>
      <trkpt lat="44.357825601473451" lon="11.071919342502952">
        <ele>516.36519999999996</ele>
        <time>2005-11-20T08:56:22Z</time>
      </trkpt>
      <trkpt lat="44.357695514336228" lon="11.071525225415826">
        <ele>519.24929999999995</ele>
        <time>2005-11-20T08:56:36Z</time>
      </trkpt>
      <trkpt lat="44.35753139667213" lon="11.071044439449906">
        <ele>522.13319999999999</ele>
        <time>2005-11-20T08:56:52Z</time>
      </trkpt>
      <trkpt lat="44.357531648129225" lon="11.070907562971115">
        <ele>524.05579999999998</ele>
        <time>2005-11-20T08:56:56Z</time>
      </trkpt>
      <trkpt lat="44.357548076659441" lon="11.070771859958768">
        <ele>524.53650000000005</ele>
        <time>2005-11-20T08:57:00Z</time>
      </trkpt>
      <trkpt lat="44.357723006978631" lon="11.070478912442923">
        <ele>523.09460000000001</ele>
        <time>2005-11-20T08:57:09Z</time>
      </trkpt>
      <trkpt lat="44.357968764379621" lon="11.06974046677351">
        <ele>522.61389999999994</ele>
        <time>2005-11-20T08:57:21Z</time>
      </trkpt>
      <trkpt lat="44.358404623344541" lon="11.06926403939724">
        <ele>525.49779999999998</ele>
        <time>2005-11-20T08:57:36Z</time>
      </trkpt>
      <trkpt lat="44.358681729063392" lon="11.069033201783895">
        <ele>526.45910000000003</ele>
        <time>2005-11-20T08:57:45Z</time>
      </trkpt>
      <trkpt lat="44.359144493937492" lon="11.068761041387916">
        <ele>527.42039999999997</ele>
        <time>2005-11-20T08:57:57Z</time>
      </trkpt>
      <trkpt lat="44.359637266024947" lon="11.068566162139177">
        <ele>528.86249999999995</ele>
        <time>2005-11-20T08:58:09Z</time>
      </trkpt>
      <trkpt lat="44.35998285189271" lon="11.068440517410636">
        <ele>532.22709999999995</ele>
        <time>2005-11-20T08:58:20Z</time>
      </trkpt>
      <trkpt lat="44.360449220985174" lon="11.068322248756886">
        <ele>530.78520000000003</ele>
        <time>2005-11-20T08:58:32Z</time>
      </trkpt>
      <trkpt lat="44.361142823472619" lon="11.068170536309481">
        <ele>530.30439999999999</ele>
        <time>2005-11-20T08:58:46Z</time>
      </trkpt>
      <trkpt lat="44.361803317442536" lon="11.06825309805572">
        <ele>527.90099999999995</ele>
        <time>2005-11-20T08:58:57Z</time>
      </trkpt>
      <trkpt lat="44.362160302698612" lon="11.068635145202279">
        <ele>524.05579999999998</ele>
        <time>2005-11-20T08:59:03Z</time>
      </trkpt>
      <trkpt lat="44.362627426162362" lon="11.068986179307103">
        <ele>521.17200000000003</ele>
        <time>2005-11-20T08:59:10Z</time>
      </trkpt>
      <trkpt lat="44.362889360636473" lon="11.069122385233641">
        <ele>519.24929999999995</ele>
        <time>2005-11-20T08:59:15Z</time>
      </trkpt>
      <trkpt lat="44.363049203529954" lon="11.069154739379883">
        <ele>518.28779999999995</ele>
        <time>2005-11-20T08:59:20Z</time>
      </trkpt>
      <trkpt lat="44.36306269839406" lon="11.069154739379883">
        <ele>518.76859999999999</ele>
        <time>2005-11-20T08:59:29Z</time>
      </trkpt>
      <trkpt lat="44.36306269839406" lon="11.069154739379883">
        <ele>518.28779999999995</ele>
        <time>2005-11-20T08:59:41Z</time>
      </trkpt>
      <trkpt lat="44.36306269839406" lon="11.069154739379883">
        <ele>518.76859999999999</ele>
        <time>2005-11-20T08:59:55Z</time>
      </trkpt>
      <trkpt lat="44.36306269839406" lon="11.069154739379883">
        <ele>518.76859999999999</ele>
        <time>2005-11-20T09:00:21Z</time>
      </trkpt>
      <trkpt lat="44.36306269839406" lon="11.069154739379883">
        <ele>518.76859999999999</ele>
        <time>2005-11-20T09:00:32Z</time>
      </trkpt>
      <trkpt lat="44.36306269839406" lon="11.069154739379883">
        <ele>518.28779999999995</ele>
        <time>2005-11-20T09:00:39Z</time>
      </trkpt>
      <trkpt lat="44.36306269839406" lon="11.069154739379883">
        <ele>518.28779999999995</ele>
        <time>2005-11-20T09:00:58Z</time>
      </trkpt>
      <trkpt lat="44.36306269839406" lon="11.069154739379883">
        <ele>519.24929999999995</ele>
        <time>2005-11-20T09:01:25Z</time>
      </trkpt>
      <trkpt lat="44.363017939031124" lon="11.069154739379883">
        <ele>519.24929999999995</ele>
        <time>2005-11-20T09:01:29Z</time>
      </trkpt>
      <trkpt lat="44.363149534910917" lon="11.069154739379883">
        <ele>519.72990000000004</ele>
        <time>2005-11-20T09:01:38Z</time>
      </trkpt>
      <trkpt lat="44.363149534910917" lon="11.069154739379883">
        <ele>519.72990000000004</ele>
        <time>2005-11-20T09:01:51Z</time>
      </trkpt>
      <trkpt lat="44.363149534910917" lon="11.069154739379883">
        <ele>519.72990000000004</ele>
        <time>2005-11-20T09:02:07Z</time>
      </trkpt>
      <trkpt lat="44.363149534910917" lon="11.069154739379883">
        <ele>519.24929999999995</ele>
        <time>2005-11-20T09:02:39Z</time>
      </trkpt>
      <trkpt lat="44.363149534910917" lon="11.069154739379883">
        <ele>519.72990000000004</ele>
        <time>2005-11-20T09:03:13Z</time>
      </trkpt>
      <trkpt lat="44.363149534910917" lon="11.069154739379883">
        <ele>520.2106</ele>
        <time>2005-11-20T09:03:49Z</time>
      </trkpt>
      <trkpt lat="44.363149534910917" lon="11.069154739379883">
        <ele>519.72990000000004</ele>
        <time>2005-11-20T09:04:31Z</time>
      </trkpt>
      <trkpt lat="44.363149534910917" lon="11.069154739379883">
        <ele>519.24929999999995</ele>
        <time>2005-11-20T09:04:42Z</time>
      </trkpt>
      <trkpt lat="44.363149534910917" lon="11.069154739379883">
        <ele>520.69129999999996</ele>
        <time>2005-11-20T09:05:10Z</time>
      </trkpt>
      <trkpt lat="44.363149534910917" lon="11.069154739379883">
        <ele>520.2106</ele>
        <time>2005-11-20T09:05:25Z</time>
      </trkpt>
      <trkpt lat="44.363149534910917" lon="11.069154739379883">
        <ele>520.69129999999996</ele>
        <time>2005-11-20T09:06:48Z</time>
      </trkpt>
      <trkpt lat="44.363149534910917" lon="11.069154739379883">
        <ele>520.2106</ele>
        <time>2005-11-20T09:07:25Z</time>
      </trkpt>
      <trkpt lat="44.363149534910917" lon="11.069154739379883">
        <ele>520.2106</ele>
        <time>2005-11-20T09:07:35Z</time>
      </trkpt>
      <trkpt lat="44.363149534910917" lon="11.069154739379883">
        <ele>521.17200000000003</ele>
        <time>2005-11-20T09:07:52Z</time>
      </trkpt>
      <trkpt lat="44.363149534910917" lon="11.069154739379883">
        <ele>521.65260000000001</ele>
        <time>2005-11-20T09:07:54Z</time>
      </trkpt>
      <trkpt lat="44.363278532400727" lon="11.069154739379883">
        <ele>523.09460000000001</ele>
        <time>2005-11-20T09:08:07Z</time>
      </trkpt>
      <trkpt lat="44.363439464941621" lon="11.069109058007598">
        <ele>524.53650000000005</ele>
        <time>2005-11-20T09:08:17Z</time>
      </trkpt>
      <trkpt lat="44.363439464941621" lon="11.069109058007598">
        <ele>524.05579999999998</ele>
        <time>2005-11-20T09:08:26Z</time>
      </trkpt>
      <trkpt lat="44.363439464941621" lon="11.069109058007598">
        <ele>523.09460000000001</ele>
        <time>2005-11-20T09:08:40Z</time>
      </trkpt>
      <trkpt lat="44.363479614257813" lon="11.06939353980124">
        <ele>522.13319999999999</ele>
        <time>2005-11-20T09:08:44Z</time>
      </trkpt>
      <trkpt lat="44.363503837957978" lon="11.069993013516068">
        <ele>512.51999999999998</ele>
        <time>2005-11-20T09:08:50Z</time>
      </trkpt>
      <trkpt lat="44.363547172397375" lon="11.070263497531414">
        <ele>510.59730000000002</ele>
        <time>2005-11-20T09:08:52Z</time>
      </trkpt>
      <trkpt lat="44.36362998560071" lon="11.07078124769032">
        <ele>504.34890000000001</ele>
        <time>2005-11-20T09:08:56Z</time>
      </trkpt>
      <trkpt lat="44.36364758759737" lon="11.070891385897994">
        <ele>504.34890000000001</ele>
        <time>2005-11-20T09:08:57Z</time>
      </trkpt>
      <trkpt lat="44.3639016430825" lon="11.070985766127706">
        <ele>496.17770000000002</ele>
        <time>2005-11-20T09:09:03Z</time>
      </trkpt>
      <trkpt lat="44.363951683044434" lon="11.071000099182129">
        <ele>492.33240000000001</ele>
        <time>2005-11-20T09:09:06Z</time>
      </trkpt>
      <trkpt lat="44.363947827368975" lon="11.071181064471602">
        <ele>489.44839999999999</ele>
        <time>2005-11-20T09:09:08Z</time>
      </trkpt>
      <trkpt lat="44.364251252263784" lon="11.07206778600812">
        <ele>485.12240000000003</ele>
        <time>2005-11-20T09:09:12Z</time>
      </trkpt>
      <trkpt lat="44.364306489005685" lon="11.072085052728653">
        <ele>483.19979999999998</ele>
        <time>2005-11-20T09:09:13Z</time>
      </trkpt>
      <trkpt lat="44.364658445119858" lon="11.072073318064213">
        <ele>475.5093</ele>
        <time>2005-11-20T09:09:19Z</time>
      </trkpt>
      <trkpt lat="44.364878553897142" lon="11.072011040523648">
        <ele>472.62540000000001</ele>
        <time>2005-11-20T09:09:22Z</time>
      </trkpt>
      <trkpt lat="44.365216931328177" lon="11.07171943411231">
        <ele>466.37670000000003</ele>
        <time>2005-11-20T09:09:27Z</time>
      </trkpt>
      <trkpt lat="44.365399070084095" lon="11.071592615917325">
        <ele>463.01209999999998</ele>
        <time>2005-11-20T09:09:30Z</time>
      </trkpt>
      <trkpt lat="44.365467550233006" lon="11.071544671431184">
        <ele>463.01209999999998</ele>
        <time>2005-11-20T09:09:31Z</time>
      </trkpt>
      <trkpt lat="44.36587474308908" lon="11.071195313706994">
        <ele>462.05079999999998</ele>
        <time>2005-11-20T09:09:39Z</time>
      </trkpt>
      <trkpt lat="44.366114214062691" lon="11.07091024518013">
        <ele>461.5702</ele>
        <time>2005-11-20T09:09:49Z</time>
      </trkpt>
      <trkpt lat="44.366675047203898" lon="11.069698221981525">
        <ele>455.80220000000003</ele>
        <time>2005-11-20T09:10:27Z</time>
      </trkpt>
      <trkpt lat="44.366720896214247" lon="11.069619515910745">
        <ele>455.32150000000001</ele>
        <time>2005-11-20T09:10:45Z</time>
      </trkpt>
      <trkpt lat="44.366727015003562" lon="11.069617588073015">
        <ele>455.80220000000003</ele>
        <time>2005-11-20T09:10:55Z</time>
      </trkpt>
      <trkpt lat="44.366729948669672" lon="11.069622281938791">
        <ele>455.80220000000003</ele>
        <time>2005-11-20T09:11:13Z</time>
      </trkpt>
      <trkpt lat="44.366731960326433" lon="11.069610463455319">
        <ele>455.32150000000001</ele>
        <time>2005-11-20T09:11:48Z</time>
      </trkpt>
      <trkpt lat="44.366731708869338" lon="11.069590095430613">
        <ele>454.8408</ele>
        <time>2005-11-20T09:12:01Z</time>
      </trkpt>
      <trkpt lat="44.36680949293077" lon="11.06958313845098">
        <ele>454.36020000000002</ele>
        <time>2005-11-20T09:12:05Z</time>
      </trkpt>
      <trkpt lat="44.367005713284016" lon="11.069686319679022">
        <ele>452.91820000000001</ele>
        <time>2005-11-20T09:12:09Z</time>
      </trkpt>
      <trkpt lat="44.367354735732079" lon="11.069802660495043">
        <ele>448.5924</ele>
        <time>2005-11-20T09:12:13Z</time>
      </trkpt>
      <trkpt lat="44.367557745426893" lon="11.069870302453637">
        <ele>445.22770000000003</ele>
        <time>2005-11-20T09:12:15Z</time>
      </trkpt>
      <trkpt lat="44.367725132033229" lon="11.06992612592876">
        <ele>442.8245</ele>
        <time>2005-11-20T09:12:17Z</time>
      </trkpt>
      <trkpt lat="44.367812555283308" lon="11.069955211132765">
        <ele>440.42129999999997</ele>
        <time>2005-11-20T09:12:20Z</time>
      </trkpt>
      <trkpt lat="44.367825211957097" lon="11.069959402084351">
        <ele>439.94040000000001</ele>
        <time>2005-11-20T09:12:27Z</time>
      </trkpt>
      <trkpt lat="44.368076082319021" lon="11.06994909234345">
        <ele>437.05650000000003</ele>
        <time>2005-11-20T09:12:42Z</time>
      </trkpt>
      <trkpt lat="44.36818010173738" lon="11.069911206141114">
        <ele>435.61450000000002</ele>
        <time>2005-11-20T09:12:46Z</time>
      </trkpt>
      <trkpt lat="44.368627863004804" lon="11.069748345762491">
        <ele>425.52080000000001</ele>
        <time>2005-11-20T09:13:00Z</time>
      </trkpt>
      <trkpt lat="44.368848726153374" lon="11.069657066836953">
        <ele>423.11739999999998</ele>
        <time>2005-11-20T09:13:10Z</time>
      </trkpt>
      <trkpt lat="44.368848726153374" lon="11.069657066836953">
        <ele>423.59800000000001</ele>
        <time>2005-11-20T09:13:57Z</time>
      </trkpt>
      <trkpt lat="44.368848726153374" lon="11.069657066836953">
        <ele>420.23340000000002</ele>
        <time>2005-11-20T09:14:15Z</time>
      </trkpt>
      <trkpt lat="44.368941513821483" lon="11.069409800693393">
        <ele>416.38819999999998</ele>
        <time>2005-11-20T09:14:25Z</time>
      </trkpt>
      <trkpt lat="44.369423473253846" lon="11.068800520151854">
        <ele>412.5428</ele>
        <time>2005-11-20T09:14:33Z</time>
      </trkpt>
      <trkpt lat="44.369489857926965" lon="11.068701026961207">
        <ele>411.58170000000001</ele>
        <time>2005-11-20T09:14:35Z</time>
      </trkpt>
      <trkpt lat="44.369526822119951" lon="11.068645538762212">
        <ele>411.58170000000001</ele>
        <time>2005-11-20T09:14:36Z</time>
      </trkpt>
      <trkpt lat="44.369791271165013" lon="11.068357452750206">
        <ele>405.33300000000003</ele>
        <time>2005-11-20T09:14:42Z</time>
      </trkpt>
      <trkpt lat="44.369791271165013" lon="11.068357452750206">
        <ele>405.33300000000003</ele>
        <time>2005-11-20T09:14:43Z</time>
      </trkpt>
      <trkpt lat="44.369791271165013" lon="11.068357452750206">
        <ele>405.81369999999998</ele>
        <time>2005-11-20T09:14:54Z</time>
      </trkpt>
      <trkpt lat="44.369791271165013" lon="11.068357452750206">
        <ele>404.85230000000001</ele>
        <time>2005-11-20T09:15:03Z</time>
      </trkpt>
      <trkpt lat="44.369791271165013" lon="11.068357452750206">
        <ele>405.81369999999998</ele>
        <time>2005-11-20T09:15:14Z</time>
      </trkpt>
      <trkpt lat="44.369791271165013" lon="11.068357452750206">
        <ele>405.33300000000003</ele>
        <time>2005-11-20T09:15:49Z</time>
      </trkpt>
      <trkpt lat="44.37025286257267" lon="11.067978339269757">
        <ele>398.1232</ele>
        <time>2005-11-20T09:16:03Z</time>
      </trkpt>
      <trkpt lat="44.370335508137941" lon="11.067925868555903">
        <ele>396.20060000000001</ele>
        <time>2005-11-20T09:16:05Z</time>
      </trkpt>
      <trkpt lat="44.370552431792021" lon="11.067742304876447">
        <ele>391.3938</ele>
        <time>2005-11-20T09:16:09Z</time>
      </trkpt>
      <trkpt lat="44.370605070143938" lon="11.067697796970606">
        <ele>390.91320000000002</ele>
        <time>2005-11-20T09:16:10Z</time>
      </trkpt>
      <trkpt lat="44.370769271627069" lon="11.067558657377958">
        <ele>386.5874</ele>
        <time>2005-11-20T09:16:13Z</time>
      </trkpt>
      <trkpt lat="44.370814617723227" lon="11.067520352080464">
        <ele>386.5874</ele>
        <time>2005-11-20T09:16:14Z</time>
      </trkpt>
      <trkpt lat="44.370903968811035" lon="11.06748104095459">
        <ele>382.74209999999999</ele>
        <time>2005-11-20T09:16:16Z</time>
      </trkpt>
      <trkpt lat="44.370933305472136" lon="11.067355815321207">
        <ele>382.26139999999998</ele>
        <time>2005-11-20T09:16:17Z</time>
      </trkpt>
      <trkpt lat="44.370971275493503" lon="11.067493194714189">
        <ele>377.45479999999998</ele>
        <time>2005-11-20T09:16:25Z</time>
      </trkpt>
      <trkpt lat="44.370991056784987" lon="11.067625042051077">
        <ele>376.9742</ele>
        <time>2005-11-20T09:17:06Z</time>
      </trkpt>
      <trkpt lat="44.371021902188659" lon="11.067648008465767">
        <ele>377.45479999999998</ele>
        <time>2005-11-20T09:17:55Z</time>
      </trkpt>
      <trkpt lat="44.370958115905523" lon="11.06774783693254">
        <ele>377.93540000000002</ele>
        <time>2005-11-20T09:19:47Z</time>
      </trkpt>
      <trkpt lat="44.370962725952268" lon="11.067749261856079">
        <ele>377.93540000000002</ele>
        <time>2005-11-20T09:20:37Z</time>
      </trkpt>
      <trkpt lat="44.370599621906877" lon="11.068095769733191">
        <ele>357.74779999999998</ele>
        <time>2005-11-20T09:22:48Z</time>
      </trkpt>
      <trkpt lat="44.370105592533946" lon="11.069152057170868">
        <ele>357.26710000000003</ele>
        <time>2005-11-20T09:22:50Z</time>
      </trkpt>
      <trkpt lat="44.370228722691536" lon="11.069066226482391">
        <ele>358.22840000000002</ele>
        <time>2005-11-20T09:22:53Z</time>
      </trkpt>
      <trkpt lat="44.370250934734941" lon="11.068974528461695">
        <ele>358.22840000000002</ele>
        <time>2005-11-20T09:23:00Z</time>
      </trkpt>
      <trkpt lat="44.370416309684515" lon="11.068827006965876">
        <ele>359.67039999999997</ele>
        <time>2005-11-20T09:23:31Z</time>
      </trkpt>
      <trkpt lat="44.370418908074498" lon="11.06887704692781">
        <ele>358.709</ele>
        <time>2005-11-20T09:24:14Z</time>
      </trkpt>
      <trkpt lat="44.37048596329987" lon="11.068892553448677">
        <ele>355.8252</ele>
        <time>2005-11-20T09:24:18Z</time>
      </trkpt>
      <trkpt lat="44.370563412085176" lon="11.068922644481063">
        <ele>352.4606</ele>
        <time>2005-11-20T09:24:26Z</time>
      </trkpt>
      <trkpt lat="44.370576990768313" lon="11.068928595632315">
        <ele>351.97989999999999</ele>
        <time>2005-11-20T09:24:27Z</time>
      </trkpt>
      <trkpt lat="44.370611943304539" lon="11.068936390802264">
        <ele>350.5378</ele>
        <time>2005-11-20T09:24:29Z</time>
      </trkpt>
      <trkpt lat="44.370651924982667" lon="11.068974947556853">
        <ele>351.4991</ele>
        <time>2005-11-20T09:24:44Z</time>
      </trkpt>
      <trkpt lat="44.370653601363301" lon="11.068977043032646">
        <ele>351.4991</ele>
        <time>2005-11-20T09:24:45Z</time>
      </trkpt>
      <trkpt lat="44.370687631890178" lon="11.068994561210275">
        <ele>351.97989999999999</ele>
        <time>2005-11-20T09:25:13Z</time>
      </trkpt>
      <trkpt lat="44.370748149231076" lon="11.069051641970873">
        <ele>351.4991</ele>
        <time>2005-11-20T09:25:54Z</time>
      </trkpt>
      <trkpt lat="44.37081822194159" lon="11.069115092977881">
        <ele>352.4606</ele>
        <time>2005-11-20T09:36:06Z</time>
      </trkpt>
      <trkpt lat="44.370870273560286" lon="11.069250712171197">
        <ele>351.01839999999999</ele>
        <time>2005-11-20T09:36:14Z</time>
      </trkpt>
      <trkpt lat="44.370899107307196" lon="11.069367472082376">
        <ele>348.13459999999998</ele>
        <time>2005-11-20T09:36:25Z</time>
      </trkpt>
      <trkpt lat="44.370898436754942" lon="11.069466210901737">
        <ele>345.25060000000002</ele>
        <time>2005-11-20T09:36:41Z</time>
      </trkpt>
      <trkpt lat="44.370926348492503" lon="11.069561596959829">
        <ele>344.2894</ele>
        <time>2005-11-20T09:36:53Z</time>
      </trkpt>
      <trkpt lat="44.370991894975305" lon="11.069620940834284">
        <ele>341.40530000000001</ele>
        <time>2005-11-20T09:37:08Z</time>
      </trkpt>
      <trkpt lat="44.371084934100509" lon="11.069643404334784">
        <ele>338.04079999999999</ele>
        <time>2005-11-20T09:37:27Z</time>
      </trkpt>
      <trkpt lat="44.371081413701177" lon="11.069580540060997">
        <ele>336.1182</ele>
        <time>2005-11-20T09:37:43Z</time>
      </trkpt>
      <trkpt lat="44.371069092303514" lon="11.069582300260663">
        <ele>333.23410000000001</ele>
        <time>2005-11-20T09:38:14Z</time>
      </trkpt>
      <trkpt lat="44.37110798433423" lon="11.069537457078695">
        <ele>330.35019999999997</ele>
        <time>2005-11-20T09:38:30Z</time>
      </trkpt>
      <trkpt lat="44.371210495010018" lon="11.069517424330115">
        <ele>325.06299999999999</ele>
        <time>2005-11-20T09:38:59Z</time>
      </trkpt>
      <trkpt lat="44.371227845549583" lon="11.069536535069346">
        <ele>321.69839999999999</ele>
        <time>2005-11-20T09:39:23Z</time>
      </trkpt>
      <trkpt lat="44.371360866352916" lon="11.069501163437963">
        <ele>314.96910000000003</ele>
        <time>2005-11-20T09:40:06Z</time>
      </trkpt>
      <trkpt lat="44.371380647644401" lon="11.069556483998895">
        <ele>312.56580000000002</ele>
        <time>2005-11-20T09:40:18Z</time>
      </trkpt>
      <trkpt lat="44.371436135843396" lon="11.06955673545599">
        <ele>308.72050000000002</ele>
        <time>2005-11-20T09:40:32Z</time>
      </trkpt>
      <trkpt lat="44.371476536616683" lon="11.069536954164505">
        <ele>305.35599999999999</ele>
        <time>2005-11-20T09:40:41Z</time>
      </trkpt>
      <trkpt lat="44.371491372585297" lon="11.069524297490716">
        <ele>304.87520000000001</ele>
        <time>2005-11-20T09:40:43Z</time>
      </trkpt>
      <trkpt lat="44.371532192453742" lon="11.069508539512753">
        <ele>301.99130000000002</ele>
        <time>2005-11-20T09:40:51Z</time>
      </trkpt>
      <trkpt lat="44.371542586013675" lon="11.069504683837295">
        <ele>301.51060000000001</ele>
        <time>2005-11-20T09:40:52Z</time>
      </trkpt>
      <trkpt lat="44.37159757129848" lon="11.069529326632619">
        <ele>301.99130000000002</ele>
        <time>2005-11-20T09:41:18Z</time>
      </trkpt>
      <trkpt lat="44.371608970686793" lon="11.069561596959829">
        <ele>301.51060000000001</ele>
        <time>2005-11-20T09:41:20Z</time>
      </trkpt>
      <trkpt lat="44.371624058112502" lon="11.069672657176852">
        <ele>301.51060000000001</ele>
        <time>2005-11-20T09:42:47Z</time>
      </trkpt>
      <trkpt lat="44.371694047003984" lon="11.069618426263332">
        <ele>301.0299</ele>
        <time>2005-11-20T09:42:52Z</time>
      </trkpt>
      <trkpt lat="44.371708380058408" lon="11.069208467379212">
        <ele>299.58800000000002</ele>
        <time>2005-11-20T09:43:03Z</time>
      </trkpt>
      <trkpt lat="44.371730759739876" lon="11.069169575348496">
        <ele>299.10730000000001</ele>
        <time>2005-11-20T09:43:14Z</time>
      </trkpt>
      <trkpt lat="44.371766969561577" lon="11.068964470177889">
        <ele>299.58800000000002</ele>
        <time>2005-11-20T09:43:28Z</time>
      </trkpt>
      <trkpt lat="44.372192351147532" lon="11.06894301250577">
        <ele>299.58800000000002</ele>
      </trkpt>
      <trkpt lat="44.372394941747189" lon="11.068542441353202">
        <ele>267.86450000000002</ele>
        <time>2005-11-20T08:29:00Z</time>
      </trkpt>
      <trkpt lat="44.372742706909776" lon="11.067943470552564">
        <ele>266.42250000000001</ele>
        <time>2005-11-20T08:28:43Z</time>
      </trkpt>
      <trkpt lat="44.372981926426291" lon="11.067524291574955">
        <ele>267.38389999999998</ele>
        <time>2005-11-20T08:28:31Z</time>
      </trkpt>
      <trkpt lat="44.373116036877036" lon="11.067464696243405">
        <ele>266.90320000000003</ele>
        <time>2005-11-20T08:28:25Z</time>
      </trkpt>
      <trkpt lat="44.373416528105736" lon="11.06724844314158">
        <ele>264.98059999999998</ele>
        <time>2005-11-20T08:28:12Z</time>
      </trkpt>
      <trkpt lat="44.37385163269937" lon="11.067211646586657">
        <ele>261.61599999999999</ele>
        <time>2005-11-20T08:27:58Z</time>
      </trkpt>
      <trkpt lat="44.374496955424547" lon="11.067190356552601">
        <ele>259.6934</ele>
        <time>2005-11-20T08:27:38Z</time>
      </trkpt>
      <trkpt lat="44.375106571242213" lon="11.06722254306078">
        <ele>258.7319</ele>
        <time>2005-11-20T08:27:20Z</time>
      </trkpt>
      <trkpt lat="44.375507477670908" lon="11.067430078983307">
        <ele>257.29000000000002</ele>
        <time>2005-11-20T08:27:06Z</time>
      </trkpt>
      <trkpt lat="44.375778213143349" lon="11.06760123744607">
        <ele>288.53300000000002</ele>
      </trkpt>
      <trkpt lat="44.376039728522301" lon="11.067659994587302">
        <ele>288.53300000000002</ele>
        <time>2005-11-20T09:45:39Z</time>
      </trkpt>
      <trkpt lat="44.376057414337993" lon="11.067608948796988">
        <ele>289.01350000000002</ele>
        <time>2005-11-20T09:45:42Z</time>
      </trkpt>
      <trkpt lat="44.376176856458187" lon="11.067263865843415">
        <ele>289.4941</ele>
        <time>2005-11-20T09:45:55Z</time>
      </trkpt>
      <trkpt lat="44.376354217529297" lon="11.066751480102539">
        <ele>288.53300000000002</ele>
        <time>2005-11-20T09:46:11Z</time>
      </trkpt>
      <trkpt lat="44.377041617408395" lon="11.066942252218723">
        <ele>287.57139999999998</ele>
        <time>2005-11-20T09:46:21Z</time>
      </trkpt>
      <trkpt lat="44.377728179097176" lon="11.06742437928915">
        <ele>288.05220000000003</ele>
        <time>2005-11-20T09:46:35Z</time>
      </trkpt>
      <trkpt lat="44.377978630363941" lon="11.067660916596651">
        <ele>288.53300000000002</ele>
        <time>2005-11-20T09:46:42Z</time>
      </trkpt>
      <trkpt lat="44.378545414656401" lon="11.068076658993959">
        <ele>290.93619999999999</ele>
        <time>2005-11-20T09:46:59Z</time>
      </trkpt>
      <trkpt lat="44.378977501764894" lon="11.068314369767904">
        <ele>292.37819999999999</ele>
        <time>2005-11-20T09:47:12Z</time>
      </trkpt>
      <trkpt lat="44.379444373771548" lon="11.068504890426993">
        <ele>295.262</ele>
        <time>2005-11-20T09:47:28Z</time>
      </trkpt>
      <trkpt lat="44.3796731159091" lon="11.068586530163884">
        <ele>296.70409999999998</ele>
        <time>2005-11-20T09:47:41Z</time>
      </trkpt>
      <trkpt lat="44.379757102578878" lon="11.068347226828337">
        <ele>298.62670000000003</ele>
        <time>2005-11-20T09:47:50Z</time>
      </trkpt>
      <trkpt lat="44.379814267158508" lon="11.067826375365257">
        <ele>300.06869999999998</ele>
        <time>2005-11-20T09:48:04Z</time>
      </trkpt>
      <trkpt lat="44.379864223301411" lon="11.067110225558281">
        <ele>301.0299</ele>
        <time>2005-11-20T09:48:24Z</time>
      </trkpt>
      <trkpt lat="44.379908982664347" lon="11.066468507051468">
        <ele>302.47190000000001</ele>
        <time>2005-11-20T09:48:39Z</time>
      </trkpt>
      <trkpt lat="44.379908228293061" lon="11.065912116318941">
        <ele>303.91390000000001</ele>
        <time>2005-11-20T09:48:52Z</time>
      </trkpt>
      <trkpt lat="44.379705050960183" lon="11.065378021448851">
        <ele>306.31729999999999</ele>
        <time>2005-11-20T09:49:06Z</time>
      </trkpt>
      <trkpt lat="44.37936726026237" lon="11.06500955298543">
        <ele>306.31729999999999</ele>
        <time>2005-11-20T09:49:19Z</time>
      </trkpt>
      <trkpt lat="44.379255529493093" lon="11.064652735367417">
        <ele>307.27859999999998</ele>
        <time>2005-11-20T09:49:27Z</time>
      </trkpt>
      <trkpt lat="44.37924019061029" lon="11.064422819763422">
        <ele>307.27859999999998</ele>
        <time>2005-11-20T09:49:31Z</time>
      </trkpt>
      <trkpt lat="44.379265923053026" lon="11.064231880009174">
        <ele>307.7593</ele>
        <time>2005-11-20T09:49:35Z</time>
      </trkpt>
      <trkpt lat="44.379475805908442" lon="11.064057117328048">
        <ele>308.23989999999998</ele>
        <time>2005-11-20T09:49:41Z</time>
      </trkpt>
      <trkpt lat="44.3799096532166" lon="11.064115287736058">
        <ele>310.16250000000002</ele>
        <time>2005-11-20T09:49:52Z</time>
      </trkpt>
      <trkpt lat="44.380041668191552" lon="11.063966760411859">
        <ele>310.6431</ele>
        <time>2005-11-20T09:49:56Z</time>
      </trkpt>
      <trkpt lat="44.380377111956477" lon="11.063668867573142">
        <ele>311.60449999999997</ele>
        <time>2005-11-20T09:50:06Z</time>
      </trkpt>
      <trkpt lat="44.380835518240929" lon="11.063312469050288">
        <ele>313.04649999999998</ele>
        <time>2005-11-20T09:50:19Z</time>
      </trkpt>
      <trkpt lat="44.380903244018555" lon="11.062824977561831">
        <ele>315.44979999999998</ele>
        <time>2005-11-20T09:50:30Z</time>
      </trkpt>
      <trkpt lat="44.380937106907368" lon="11.06246966868639">
        <ele>318.33359999999999</ele>
        <time>2005-11-20T09:50:40Z</time>
      </trkpt>
      <trkpt lat="44.38092352822423" lon="11.061989637091756">
        <ele>320.7371</ele>
        <time>2005-11-20T09:50:55Z</time>
      </trkpt>
      <trkpt lat="44.380886061117053" lon="11.061584539711475">
        <ele>323.1404</ele>
        <time>2005-11-20T09:51:09Z</time>
      </trkpt>
      <trkpt lat="44.380827639251947" lon="11.06138002127409">
        <ele>325.54360000000003</ele>
        <time>2005-11-20T09:51:16Z</time>
      </trkpt>
      <trkpt lat="44.380791429430246" lon="11.061335345730186">
        <ele>326.02420000000001</ele>
        <time>2005-11-20T09:51:20Z</time>
      </trkpt>
      <trkpt lat="44.380693109706044" lon="11.061302572488785">
        <ele>326.98559999999998</ele>
        <time>2005-11-20T09:51:25Z</time>
      </trkpt>
      <trkpt lat="44.380481969565153" lon="11.061601974070072">
        <ele>328.42759999999998</ele>
        <time>2005-11-20T09:51:38Z</time>
      </trkpt>
      <trkpt lat="44.380225315690041" lon="11.061975220218301">
        <ele>331.7921</ele>
        <time>2005-11-20T09:51:53Z</time>
      </trkpt>
      <trkpt lat="44.380027502775192" lon="11.062015034258366">
        <ele>333.23410000000001</ele>
        <time>2005-11-20T09:52:00Z</time>
      </trkpt>
      <trkpt lat="44.379878891631961" lon="11.062049483880401">
        <ele>334.19540000000001</ele>
        <time>2005-11-20T09:52:05Z</time>
      </trkpt>
      <trkpt lat="44.379892637953162" lon="11.061889808624983">
        <ele>335.63729999999998</ele>
        <time>2005-11-20T09:52:10Z</time>
      </trkpt>
      <trkpt lat="44.379901941865683" lon="11.061726696789265">
        <ele>336.1182</ele>
        <time>2005-11-20T09:52:14Z</time>
      </trkpt>
      <trkpt lat="44.380116350948811" lon="11.061378261074424">
        <ele>339.48270000000002</ele>
        <time>2005-11-20T09:52:26Z</time>
      </trkpt>
      <trkpt lat="44.3803068716079" lon="11.060869982466102">
        <ele>341.88600000000002</ele>
        <time>2005-11-20T09:52:40Z</time>
      </trkpt>
      <trkpt lat="44.380327742546797" lon="11.060451474040747">
        <ele>345.25060000000002</ele>
        <time>2005-11-20T09:52:50Z</time>
      </trkpt>
      <trkpt lat="44.38034106977284" lon="11.060185516253114">
        <ele>348.61520000000002</ele>
        <time>2005-11-20T09:52:57Z</time>
      </trkpt>
      <trkpt lat="44.380375519394875" lon="11.059708166867495">
        <ele>351.01839999999999</ele>
        <time>2005-11-20T09:53:11Z</time>
      </trkpt>
      <trkpt lat="44.380383566021919" lon="11.059602722525597">
        <ele>352.4606</ele>
        <time>2005-11-20T09:53:14Z</time>
      </trkpt>
      <trkpt lat="44.380427822470665" lon="11.059284629300237">
        <ele>355.34449999999998</ele>
        <time>2005-11-20T09:53:24Z</time>
      </trkpt>
      <trkpt lat="44.38049010001123" lon="11.058879783377051">
        <ele>356.78640000000001</ele>
        <time>2005-11-20T09:53:37Z</time>
      </trkpt>
      <trkpt lat="44.380566291511059" lon="11.05838474817574">
        <ele>359.67039999999997</ele>
        <time>2005-11-20T09:53:52Z</time>
      </trkpt>
      <trkpt lat="44.380647009238601" lon="11.057859873399138">
        <ele>362.07369999999997</ele>
        <time>2005-11-20T09:54:07Z</time>
      </trkpt>
      <trkpt lat="44.380701323971152" lon="11.057506995275617">
        <ele>363.99630000000002</ele>
        <time>2005-11-20T09:54:18Z</time>
      </trkpt>
      <trkpt lat="44.380738791078329" lon="11.05726333335042">
        <ele>366.8802</ele>
        <time>2005-11-20T09:54:26Z</time>
      </trkpt>
      <trkpt lat="44.38077500090003" lon="11.057028137147427">
        <ele>370.24489999999997</ele>
        <time>2005-11-20T09:54:33Z</time>
      </trkpt>
      <trkpt lat="44.380780449137092" lon="11.056992597877979">
        <ele>370.24489999999997</ele>
        <time>2005-11-20T09:54:34Z</time>
      </trkpt>
      <trkpt lat="44.380802325904369" lon="11.056850524619222">
        <ele>371.68689999999998</ele>
        <time>2005-11-20T09:54:38Z</time>
      </trkpt>
      <trkpt lat="44.380929730832577" lon="11.05650887824595">
        <ele>374.09010000000001</ele>
        <time>2005-11-20T09:54:50Z</time>
      </trkpt>
      <trkpt lat="44.380973568186164" lon="11.056413827463984">
        <ele>376.01280000000003</ele>
        <time>2005-11-20T09:54:54Z</time>
      </trkpt>
      <trkpt lat="44.381066607311368" lon="11.056212242692709">
        <ele>377.45479999999998</ele>
        <time>2005-11-20T09:55:06Z</time>
      </trkpt>
      <trkpt lat="44.381103403866291" lon="11.056165639311075">
        <ele>377.93540000000002</ele>
        <time>2005-11-20T09:55:08Z</time>
      </trkpt>
      <trkpt lat="44.381671026349068" lon="11.055636405944824">
        <ele>378.89690000000002</ele>
        <time>2005-11-20T09:55:39Z</time>
      </trkpt>
      <trkpt lat="44.381765406578779" lon="11.055636405944824">
        <ele>380.81950000000001</ele>
        <time>2005-11-20T09:55:45Z</time>
      </trkpt>
      <trkpt lat="44.381779320538044" lon="11.055636405944824">
        <ele>380.81950000000001</ele>
        <time>2005-11-20T09:55:46Z</time>
      </trkpt>
      <trkpt lat="44.381985263898969" lon="11.055591311305761">
        <ele>383.22269999999997</ele>
        <time>2005-11-20T09:55:59Z</time>
      </trkpt>
      <trkpt lat="44.382066819816828" lon="11.055570859462023">
        <ele>384.66480000000001</ele>
        <time>2005-11-20T09:56:10Z</time>
      </trkpt>
      <trkpt lat="44.382066819816828" lon="11.055570859462023">
        <ele>385.1454</ele>
        <time>2005-11-20T09:56:14Z</time>
      </trkpt>
      <trkpt lat="44.381944192573428" lon="11.055601537227631">
        <ele>384.1841</ele>
        <time>2005-11-20T09:56:19Z</time>
      </trkpt>
      <trkpt lat="44.381518643349409" lon="11.055750567466021">
        <ele>378.41609999999997</ele>
        <time>2005-11-20T09:56:30Z</time>
      </trkpt>
      <trkpt lat="44.381518643349409" lon="11.055750567466021">
        <ele>378.41609999999997</ele>
        <time>2005-11-20T09:56:35Z</time>
      </trkpt>
      <trkpt lat="44.381657028570771" lon="11.055636405944824">
        <ele>379.858</ele>
        <time>2005-11-20T09:56:46Z</time>
      </trkpt>
      <trkpt lat="44.381908234208822" lon="11.055610505864024">
        <ele>383.22269999999997</ele>
        <time>2005-11-20T09:57:00Z</time>
      </trkpt>
      <trkpt lat="44.382037064060569" lon="11.055578235536814">
        <ele>385.62599999999998</ele>
        <time>2005-11-20T09:57:08Z</time>
      </trkpt>
      <trkpt lat="44.382217945531011" lon="11.055564489215612">
        <ele>388.50999999999999</ele>
        <time>2005-11-20T09:57:20Z</time>
      </trkpt>
      <trkpt lat="44.382223142310977" lon="11.055565578863025">
        <ele>390.43259999999998</ele>
        <time>2005-11-20T09:57:30Z</time>
      </trkpt>
      <trkpt lat="44.382389187812805" lon="11.055824244394898">
        <ele>392.83589999999998</ele>
        <time>2005-11-20T09:57:39Z</time>
      </trkpt>
      <trkpt lat="44.382364125922322" lon="11.056049801409245">
        <ele>396.68119999999999</ele>
        <time>2005-11-20T09:57:54Z</time>
      </trkpt>
      <trkpt lat="44.382526148110628" lon="11.056463196873665">
        <ele>401.00709999999998</ele>
        <time>2005-11-20T09:58:16Z</time>
      </trkpt>
      <trkpt lat="44.382620276883245" lon="11.056691771373153">
        <ele>403.41039999999998</ele>
        <time>2005-11-20T09:58:30Z</time>
      </trkpt>
      <trkpt lat="44.382680458948016" lon="11.056963345035911">
        <ele>405.81369999999998</ele>
        <time>2005-11-20T09:58:44Z</time>
      </trkpt>
      <trkpt lat="44.382706861943007" lon="11.05721446685493">
        <ele>409.17829999999998</ele>
        <time>2005-11-20T09:58:57Z</time>
      </trkpt>
      <trkpt lat="44.382736617699265" lon="11.057497104629874">
        <ele>412.5428</ele>
        <time>2005-11-20T09:59:11Z</time>
      </trkpt>
      <trkpt lat="44.382719937711954" lon="11.057739341631532">
        <ele>414.94619999999998</ele>
        <time>2005-11-20T09:59:24Z</time>
      </trkpt>
      <trkpt lat="44.382678950205445" lon="11.058041257783771">
        <ele>414.46550000000002</ele>
        <time>2005-11-20T09:59:41Z</time>
      </trkpt>
      <trkpt lat="44.382781041786075" lon="11.058321967720985">
        <ele>417.34960000000001</ele>
        <time>2005-11-20T09:59:57Z</time>
      </trkpt>
      <trkpt lat="44.382890090346336" lon="11.058524390682578">
        <ele>419.75279999999998</ele>
        <time>2005-11-20T10:00:10Z</time>
      </trkpt>
      <trkpt lat="44.383118581026793" lon="11.058705691248178">
        <ele>422.15600000000001</ele>
        <time>2005-11-20T10:00:29Z</time>
      </trkpt>
      <trkpt lat="44.383264258503914" lon="11.058592284098268">
        <ele>424.55939999999998</ele>
        <time>2005-11-20T10:00:42Z</time>
      </trkpt>
      <trkpt lat="44.383473386988044" lon="11.058429591357708">
        <ele>427.4434</ele>
        <time>2005-11-20T10:00:58Z</time>
      </trkpt>
      <trkpt lat="44.383663907647133" lon="11.058435793966055">
        <ele>430.32729999999998</ele>
        <time>2005-11-20T10:01:11Z</time>
      </trkpt>
      <trkpt lat="44.383890805765986" lon="11.058597899973392">
        <ele>432.25</ele>
        <time>2005-11-20T10:01:27Z</time>
      </trkpt>
      <trkpt lat="44.384065233170986" lon="11.058780960738659">
        <ele>435.13389999999998</ele>
        <time>2005-11-20T10:01:41Z</time>
      </trkpt>
      <trkpt lat="44.384251227602363" lon="11.059008277952671">
        <ele>437.05650000000003</ele>
        <time>2005-11-20T10:01:57Z</time>
      </trkpt>
      <trkpt lat="44.384266817942262" lon="11.05921933427453">
        <ele>439.94040000000001</ele>
        <time>2005-11-20T10:02:08Z</time>
      </trkpt>
      <trkpt lat="44.384166654199362" lon="11.059372890740633">
        <ele>442.34390000000002</ele>
        <time>2005-11-20T10:02:18Z</time>
      </trkpt>
      <trkpt lat="44.384062550961971" lon="11.059532482177019">
        <ele>445.70839999999998</ele>
        <time>2005-11-20T10:02:30Z</time>
      </trkpt>
      <trkpt lat="44.383904635906219" lon="11.059774551540613">
        <ele>447.15030000000002</ele>
        <time>2005-11-20T10:02:48Z</time>
      </trkpt>
      <trkpt lat="44.383789300918579" lon="11.059951409697533">
        <ele>448.5924</ele>
        <time>2005-11-20T10:03:01Z</time>
      </trkpt>
      <trkpt lat="44.383672960102558" lon="11.06015894562006">
        <ele>451.47629999999998</ele>
        <time>2005-11-20T10:03:15Z</time>
      </trkpt>
      <trkpt lat="44.383606910705566" lon="11.060376958921552">
        <ele>453.39890000000003</ele>
        <time>2005-11-20T10:03:28Z</time>
      </trkpt>
      <trkpt lat="44.383619986474514" lon="11.060591200366616">
        <ele>456.28300000000002</ele>
        <time>2005-11-20T10:03:43Z</time>
      </trkpt>
      <trkpt lat="44.383724257349968" lon="11.060700416564941">
        <ele>459.1669</ele>
        <time>2005-11-20T10:03:57Z</time>
      </trkpt>
      <trkpt lat="44.383825846016407" lon="11.060694381594658">
        <ele>461.5702</ele>
        <time>2005-11-20T10:04:10Z</time>
      </trkpt>
      <trkpt lat="44.383944533765316" lon="11.060528168454766">
        <ele>463.97340000000003</ele>
        <time>2005-11-20T10:04:22Z</time>
      </trkpt>
      <trkpt lat="44.384038411080837" lon="11.060398919507861">
        <ele>466.37670000000003</ele>
        <time>2005-11-20T10:04:36Z</time>
      </trkpt>
      <trkpt lat="44.384038411080837" lon="11.060398919507861">
        <ele>468.77999999999997</ele>
        <time>2005-11-20T10:04:45Z</time>
      </trkpt>
      <trkpt lat="44.384318450465798" lon="11.060455245897174">
        <ele>472.1447</ele>
        <time>2005-11-20T10:04:59Z</time>
      </trkpt>
      <trkpt lat="44.384509809315205" lon="11.060586087405682">
        <ele>472.1447</ele>
        <time>2005-11-20T10:05:13Z</time>
      </trkpt>
      <trkpt lat="44.384642411023378" lon="11.060756491497159">
        <ele>474.06729999999999</ele>
        <time>2005-11-20T10:05:27Z</time>
      </trkpt>
      <trkpt lat="44.38477786257863" lon="11.060918010771275">
        <ele>475.98989999999998</ele>
        <time>2005-11-20T10:05:44Z</time>
      </trkpt>
      <trkpt lat="44.38477786257863" lon="11.060918010771275">
        <ele>476.9513</ele>
        <time>2005-11-20T10:05:49Z</time>
      </trkpt>
      <trkpt lat="44.38477786257863" lon="11.060918010771275">
        <ele>477.91250000000002</ele>
        <time>2005-11-20T10:05:56Z</time>
      </trkpt>
      <trkpt lat="44.384989757090807" lon="11.060894960537553">
        <ele>480.3159</ele>
        <time>2005-11-20T10:06:04Z</time>
      </trkpt>
      <trkpt lat="44.385188575834036" lon="11.060656411573291">
        <ele>482.7192</ele>
        <time>2005-11-20T10:06:21Z</time>
      </trkpt>
      <trkpt lat="44.385431483387947" lon="11.060364972800016">
        <ele>484.64179999999999</ele>
        <time>2005-11-20T10:06:40Z</time>
      </trkpt>
      <trkpt lat="44.385698949918151" lon="11.060043945908546">
        <ele>488.00650000000002</ele>
        <time>2005-11-20T10:06:57Z</time>
      </trkpt>
      <trkpt lat="44.385722670704126" lon="11.060015447437763">
        <ele>488.48719999999997</ele>
        <time>2005-11-20T10:06:59Z</time>
      </trkpt>
      <trkpt lat="44.385857954621315" lon="11.059917630627751">
        <ele>486.56450000000001</ele>
        <time>2005-11-20T10:07:06Z</time>
      </trkpt>
      <trkpt lat="44.385926434770226" lon="11.059906147420406">
        <ele>485.12240000000003</ele>
        <time>2005-11-20T10:07:10Z</time>
      </trkpt>
      <trkpt lat="44.386025425046682" lon="11.059829536825418">
        <ele>484.16109999999998</ele>
        <time>2005-11-20T10:07:18Z</time>
      </trkpt>
      <trkpt lat="44.386025425046682" lon="11.059829536825418">
        <ele>484.64179999999999</ele>
        <time>2005-11-20T10:08:21Z</time>
      </trkpt>
      <trkpt lat="44.386025425046682" lon="11.059829536825418">
        <ele>484.64179999999999</ele>
        <time>2005-11-20T10:08:52Z</time>
      </trkpt>
      <trkpt lat="44.386025425046682" lon="11.059829536825418">
        <ele>483.19979999999998</ele>
        <time>2005-11-20T10:11:22Z</time>
      </trkpt>
      <trkpt lat="44.386025425046682" lon="11.059829536825418">
        <ele>483.68040000000002</ele>
        <time>2005-11-20T10:15:33Z</time>
      </trkpt>
      <trkpt lat="44.386025425046682" lon="11.059829536825418">
        <ele>483.19979999999998</ele>
        <time>2005-11-20T10:15:47Z</time>
      </trkpt>
      <trkpt lat="44.386025425046682" lon="11.059829536825418">
        <ele>483.19979999999998</ele>
        <time>2005-11-20T10:16:43Z</time>
      </trkpt>
      <trkpt lat="44.386025425046682" lon="11.059829536825418">
        <ele>482.7192</ele>
        <time>2005-11-20T10:17:43Z</time>
      </trkpt>
      <trkpt lat="44.386025425046682" lon="11.059829536825418">
        <ele>483.19979999999998</ele>
        <time>2005-11-20T10:18:04Z</time>
      </trkpt>
      <trkpt lat="44.386025425046682" lon="11.059829536825418">
        <ele>483.19979999999998</ele>
        <time>2005-11-20T10:18:13Z</time>
      </trkpt>
      <trkpt lat="44.386025425046682" lon="11.059829536825418">
        <ele>483.19979999999998</ele>
        <time>2005-11-20T10:18:30Z</time>
      </trkpt>
      <trkpt lat="44.385937247425318" lon="11.059653265401721">
        <ele>484.16109999999998</ele>
        <time>2005-11-20T10:18:36Z</time>
      </trkpt>
      <trkpt lat="44.385863738134503" lon="11.059445729479194">
        <ele>487.04500000000002</ele>
        <time>2005-11-20T10:18:48Z</time>
      </trkpt>
      <trkpt lat="44.385838508605957" lon="11.059263925999403">
        <ele>489.44839999999999</ele>
        <time>2005-11-20T10:18:59Z</time>
      </trkpt>
      <trkpt lat="44.385838508605957" lon="11.058804178610444">
        <ele>495.69690000000003</ele>
        <time>2005-11-20T10:19:22Z</time>
      </trkpt>
      <trkpt lat="44.385838508605957" lon="11.058415258303285">
        <ele>497.13889999999998</ele>
        <time>2005-11-20T10:19:40Z</time>
      </trkpt>
      <trkpt lat="44.385838508605957" lon="11.057995576411486">
        <ele>500.02289999999999</ele>
        <time>2005-11-20T10:19:59Z</time>
      </trkpt>
      <trkpt lat="44.385838508605957" lon="11.057681171223521">
        <ele>502.9067</ele>
        <time>2005-11-20T10:20:13Z</time>
      </trkpt>
      <trkpt lat="44.385841526091099" lon="11.057267859578133">
        <ele>505.31020000000001</ele>
        <time>2005-11-20T10:20:32Z</time>
      </trkpt>
      <trkpt lat="44.385856613516808" lon="11.057057557627559">
        <ele>508.67469999999997</ele>
        <time>2005-11-20T10:20:42Z</time>
      </trkpt>
      <trkpt lat="44.385873712599277" lon="11.056817248463631">
        <ele>511.55869999999999</ele>
        <time>2005-11-20T10:20:53Z</time>
      </trkpt>
      <trkpt lat="44.385950490832329" lon="11.056460598483682">
        <ele>514.44259999999997</ele>
        <time>2005-11-20T10:21:10Z</time>
      </trkpt>
      <trkpt lat="44.386059707030654" lon="11.056067403405905">
        <ele>516.36519999999996</ele>
        <time>2005-11-20T10:21:26Z</time>
      </trkpt>
      <trkpt lat="44.386188704520464" lon="11.055833715945482">
        <ele>518.28779999999995</ele>
        <time>2005-11-20T10:21:40Z</time>
      </trkpt>
      <trkpt lat="44.386351564899087" lon="11.055652666836977">
        <ele>521.65260000000001</ele>
        <time>2005-11-20T10:21:55Z</time>
      </trkpt>
      <trkpt lat="44.386474443599582" lon="11.055516293272376">
        <ele>525.0172</ele>
        <time>2005-11-20T10:22:06Z</time>
      </trkpt>
      <trkpt lat="44.38652029260993" lon="11.05543146841228">
        <ele>526.45910000000003</ele>
        <time>2005-11-20T10:22:11Z</time>
      </trkpt>
      <trkpt lat="44.386583240702748" lon="11.055305739864707">
        <ele>529.34310000000005</ele>
        <time>2005-11-20T10:22:18Z</time>
      </trkpt>
      <trkpt lat="44.386664126068354" lon="11.055037602782249">
        <ele>530.78520000000003</ele>
        <time>2005-11-20T10:22:31Z</time>
      </trkpt>
      <trkpt lat="44.386696815490723" lon="11.05450501665473">
        <ele>529.34310000000005</ele>
        <time>2005-11-20T10:22:46Z</time>
      </trkpt>
      <trkpt lat="44.386780299246311" lon="11.054103272035718">
        <ele>527.42039999999997</ele>
        <time>2005-11-20T10:22:54Z</time>
      </trkpt>
      <trkpt lat="44.386876942589879" lon="11.053868494927883">
        <ele>526.45910000000003</ele>
        <time>2005-11-20T10:22:57Z</time>
      </trkpt>
      <trkpt lat="44.387376001104712" lon="11.053315876051784">
        <ele>521.65260000000001</ele>
        <time>2005-11-20T10:23:08Z</time>
      </trkpt>
      <trkpt lat="44.387675486505032" lon="11.052766442298889">
        <ele>520.2106</ele>
        <time>2005-11-20T10:23:14Z</time>
      </trkpt>
      <trkpt lat="44.387648496776819" lon="11.052226312458515">
        <ele>517.80730000000005</ele>
        <time>2005-11-20T10:23:19Z</time>
      </trkpt>
      <trkpt lat="44.387555122375488" lon="11.051816940307617">
        <ele>516.84590000000003</ele>
        <time>2005-11-20T10:23:23Z</time>
      </trkpt>
      <trkpt lat="44.387567359954119" lon="11.051498679444194">
        <ele>517.80730000000005</ele>
        <time>2005-11-20T10:23:27Z</time>
      </trkpt>
      <trkpt lat="44.387593511492014" lon="11.050819912925363">
        <ele>515.40409999999997</ele>
        <time>2005-11-20T10:23:35Z</time>
      </trkpt>
      <trkpt lat="44.387632068246603" lon="11.05049729347229">
        <ele>513.48140000000001</ele>
        <time>2005-11-20T10:23:38Z</time>
      </trkpt>
      <trkpt lat="44.38766903243959" lon="11.050275508314371">
        <ele>513.00070000000005</ele>
        <time>2005-11-20T10:23:40Z</time>
      </trkpt>
      <trkpt lat="44.387701218947768" lon="11.049873763695359">
        <ele>511.55869999999999</ele>
        <time>2005-11-20T10:23:44Z</time>
      </trkpt>
      <trkpt lat="44.387724855914712" lon="11.049448465928435">
        <ele>514.44259999999997</ele>
        <time>2005-11-20T10:23:51Z</time>
      </trkpt>
      <trkpt lat="44.387767435982823" lon="11.049237661063671">
        <ele>516.36519999999996</ele>
        <time>2005-11-20T10:24:01Z</time>
      </trkpt>
      <trkpt lat="44.387832814827561" lon="11.04895418509841">
        <ele>518.28779999999995</ele>
        <time>2005-11-20T10:24:14Z</time>
      </trkpt>
      <trkpt lat="44.38782837241888" lon="11.048581609502435">
        <ele>520.69129999999996</ele>
        <time>2005-11-20T10:24:29Z</time>
      </trkpt>
      <trkpt lat="44.387872461229563" lon="11.048173913732171">
        <ele>521.65260000000001</ele>
        <time>2005-11-20T10:24:39Z</time>
      </trkpt>
      <trkpt lat="44.387940522283316" lon="11.04754451662302">
        <ele>522.13319999999999</ele>
        <time>2005-11-20T10:24:54Z</time>
      </trkpt>
      <trkpt lat="44.387971619144082" lon="11.047075800597668">
        <ele>522.13319999999999</ele>
        <time>2005-11-20T10:25:07Z</time>
      </trkpt>
      <trkpt lat="44.387960387393832" lon="11.047019641846418">
        <ele>522.13319999999999</ele>
        <time>2005-11-20T10:25:08Z</time>
      </trkpt>
      <trkpt lat="44.388196924701333" lon="11.046729041263461">
        <ele>518.28779999999995</ele>
        <time>2005-11-20T10:25:13Z</time>
      </trkpt>
      <trkpt lat="44.388320306316018" lon="11.046693753451109">
        <ele>516.84590000000003</ele>
        <time>2005-11-20T10:25:15Z</time>
      </trkpt>
      <trkpt lat="44.38842985779047" lon="11.046646060422063">
        <ele>514.92330000000004</ele>
        <time>2005-11-20T10:25:17Z</time>
      </trkpt>
      <trkpt lat="44.388552065938711" lon="11.046488815918565">
        <ele>510.59730000000002</ele>
        <time>2005-11-20T10:25:20Z</time>
      </trkpt>
      <trkpt lat="44.388575032353401" lon="11.046459311619401">
        <ele>509.15539999999999</ele>
        <time>2005-11-20T10:25:21Z</time>
      </trkpt>
      <trkpt lat="44.388733869418502" lon="11.046270970255136">
        <ele>507.71350000000001</ele>
        <time>2005-11-20T10:25:31Z</time>
      </trkpt>
      <trkpt lat="44.388960683718324" lon="11.046157479286194">
        <ele>508.19409999999999</ele>
        <time>2005-11-20T10:25:43Z</time>
      </trkpt>
      <trkpt lat="44.389202501624823" lon="11.046066284179687">
        <ele>509.6361</ele>
        <time>2005-11-20T10:25:53Z</time>
      </trkpt>
      <trkpt lat="44.389523947611451" lon="11.046066284179687">
        <ele>510.59730000000002</ele>
        <time>2005-11-20T10:26:03Z</time>
      </trkpt>
      <trkpt lat="44.389798622578382" lon="11.046160580590367">
        <ele>511.07799999999997</ele>
        <time>2005-11-20T10:26:12Z</time>
      </trkpt>
      <trkpt lat="44.39010146073997" lon="11.046293349936604">
        <ele>512.0394</ele>
        <time>2005-11-20T10:26:23Z</time>
      </trkpt>
      <trkpt lat="44.390257112681866" lon="11.046429555863142">
        <ele>511.55869999999999</ele>
        <time>2005-11-20T10:26:35Z</time>
      </trkpt>
      <trkpt lat="44.390453835949302" lon="11.046614041551948">
        <ele>510.11669999999998</ele>
        <time>2005-11-20T10:26:47Z</time>
      </trkpt>
      <trkpt lat="44.390645027160645" lon="11.046881675720215">
        <ele>509.15539999999999</ele>
        <time>2005-11-20T10:27:00Z</time>
      </trkpt>
      <trkpt lat="44.390645027160645" lon="11.046881675720215">
        <ele>509.15539999999999</ele>
        <time>2005-11-20T10:27:09Z</time>
      </trkpt>
      <trkpt lat="44.390645027160645" lon="11.046881675720215">
        <ele>510.59730000000002</ele>
        <time>2005-11-20T10:27:13Z</time>
      </trkpt>
      <trkpt lat="44.390645027160645" lon="11.046881675720215">
        <ele>512.0394</ele>
        <time>2005-11-20T10:27:26Z</time>
      </trkpt>
      <trkpt lat="44.391143415123224" lon="11.047178478911519">
        <ele>512.51999999999998</ele>
        <time>2005-11-20T10:27:36Z</time>
      </trkpt>
      <trkpt lat="44.391159759834409" lon="11.047186776995659">
        <ele>513.00070000000005</ele>
        <time>2005-11-20T10:27:44Z</time>
      </trkpt>
      <trkpt lat="44.391155317425728" lon="11.047184346243739">
        <ele>513.48140000000001</ele>
        <time>2005-11-20T10:28:05Z</time>
      </trkpt>
      <trkpt lat="44.391157496720552" lon="11.047181831672788">
        <ele>513.00070000000005</ele>
        <time>2005-11-20T10:28:27Z</time>
      </trkpt>
      <trkpt lat="44.391292110085487" lon="11.047169091179967">
        <ele>513.00070000000005</ele>
        <time>2005-11-20T10:28:40Z</time>
      </trkpt>
      <trkpt lat="44.391514398157597" lon="11.047178562730551">
        <ele>509.6361</ele>
        <time>2005-11-20T10:28:49Z</time>
      </trkpt>
      <trkpt lat="44.391645574942231" lon="11.04719951748848">
        <ele>505.79090000000002</ele>
        <time>2005-11-20T10:28:54Z</time>
      </trkpt>
      <trkpt lat="44.391672648489475" lon="11.047201948240399">
        <ele>505.79090000000002</ele>
        <time>2005-11-20T10:28:55Z</time>
      </trkpt>
      <trkpt lat="44.391874987632036" lon="11.047130199149251">
        <ele>503.8682</ele>
        <time>2005-11-20T10:29:05Z</time>
      </trkpt>
      <trkpt lat="44.392120828852057" lon="11.047075884416699">
        <ele>505.31020000000001</ele>
        <time>2005-11-20T10:29:15Z</time>
      </trkpt>
      <trkpt lat="44.392195763066411" lon="11.047079907730222">
        <ele>504.34890000000001</ele>
        <time>2005-11-20T10:29:25Z</time>
      </trkpt>
      <trkpt lat="44.392219316214323" lon="11.047098767012358">
        <ele>504.34890000000001</ele>
        <time>2005-11-20T10:29:41Z</time>
      </trkpt>
      <trkpt lat="44.39234864898026" lon="11.047202702611685">
        <ele>502.9067</ele>
        <time>2005-11-20T10:29:47Z</time>
      </trkpt>
      <trkpt lat="44.392429953441024" lon="11.047266572713852">
        <ele>500.50349999999997</ele>
        <time>2005-11-20T10:29:50Z</time>
      </trkpt>
      <trkpt lat="44.392582839354873" lon="11.047324575483799">
        <ele>497.61959999999999</ele>
        <time>2005-11-20T10:29:56Z</time>
      </trkpt>
      <trkpt lat="44.392742682248354" lon="11.047303285449743">
        <ele>493.77429999999998</ele>
        <time>2005-11-20T10:30:00Z</time>
      </trkpt>
      <trkpt lat="44.392814431339502" lon="11.047273110598326">
        <ele>491.85169999999999</ele>
        <time>2005-11-20T10:30:03Z</time>
      </trkpt>
      <trkpt lat="44.39302054233849" lon="11.04720588773489">
        <ele>488.48719999999997</ele>
        <time>2005-11-20T10:30:13Z</time>
      </trkpt>
      <trkpt lat="44.393059015274048" lon="11.047188956290483">
        <ele>488.48719999999997</ele>
        <time>2005-11-20T10:30:18Z</time>
      </trkpt>
      <trkpt lat="44.393097572028637" lon="11.047195577993989">
        <ele>488.48719999999997</ele>
        <time>2005-11-20T10:30:22Z</time>
      </trkpt>
      <trkpt lat="44.393260851502419" lon="11.047140844166279">
        <ele>488.00650000000002</ele>
        <time>2005-11-20T10:30:37Z</time>
      </trkpt>
      <trkpt lat="44.393328325822949" lon="11.047105807811022">
        <ele>489.44839999999999</ele>
        <time>2005-11-20T10:30:49Z</time>
      </trkpt>
      <trkpt lat="44.393334947526455" lon="11.047100694850087">
        <ele>490.40980000000002</ele>
        <time>2005-11-20T10:31:04Z</time>
      </trkpt>
      <trkpt lat="44.393328996375203" lon="11.047112178057432">
        <ele>489.44839999999999</ele>
        <time>2005-11-20T10:31:16Z</time>
      </trkpt>
      <trkpt lat="44.393336037173867" lon="11.047106562182307">
        <ele>489.92910000000001</ele>
        <time>2005-11-20T10:31:40Z</time>
      </trkpt>
      <trkpt lat="44.393383478745818" lon="11.047066748142242">
        <ele>490.40980000000002</ele>
        <time>2005-11-20T10:31:54Z</time>
      </trkpt>
      <trkpt lat="44.393530832603574" lon="11.047046966850758">
        <ele>491.85169999999999</ele>
        <time>2005-11-20T10:32:05Z</time>
      </trkpt>
      <trkpt lat="44.393667038530111" lon="11.04702509008348">
        <ele>491.85169999999999</ele>
        <time>2005-11-20T10:32:14Z</time>
      </trkpt>
      <trkpt lat="44.393827049061656" lon="11.047050822526217">
        <ele>493.29360000000003</ele>
        <time>2005-11-20T10:32:28Z</time>
      </trkpt>
      <trkpt lat="44.393974570557475" lon="11.047089379280806">
        <ele>494.73559999999998</ele>
        <time>2005-11-20T10:32:44Z</time>
      </trkpt>
      <trkpt lat="44.394047157838941" lon="11.047170432284474">
        <ele>494.73559999999998</ele>
        <time>2005-11-20T10:32:57Z</time>
      </trkpt>
      <trkpt lat="44.394067022949457" lon="11.047187699005008">
        <ele>494.73559999999998</ele>
        <time>2005-11-20T10:33:08Z</time>
      </trkpt>
      <trkpt lat="44.394120248034596" lon="11.047245198860765">
        <ele>494.255</ele>
        <time>2005-11-20T10:33:18Z</time>
      </trkpt>
      <trkpt lat="44.394313031807542" lon="11.047331364825368">
        <ele>494.255</ele>
        <time>2005-11-20T10:33:33Z</time>
      </trkpt>
      <trkpt lat="44.394481340423226" lon="11.047438150271773">
        <ele>496.17770000000002</ele>
        <time>2005-11-20T10:33:48Z</time>
      </trkpt>
      <trkpt lat="44.394696420058608" lon="11.047585420310497">
        <ele>497.61959999999999</ele>
        <time>2005-11-20T10:34:06Z</time>
      </trkpt>
      <trkpt lat="44.394787363708019" lon="11.047563459724188">
        <ele>498.1003</ele>
        <time>2005-11-20T10:34:19Z</time>
      </trkpt>
      <trkpt lat="44.394793147221208" lon="11.047551725059748">
        <ele>497.61959999999999</ele>
        <time>2005-11-20T10:34:38Z</time>
      </trkpt>
      <trkpt lat="44.39479960128665" lon="11.047547115013003">
        <ele>497.61959999999999</ele>
        <time>2005-11-20T10:34:50Z</time>
      </trkpt>
      <trkpt lat="44.394797002896667" lon="11.047563124448061">
        <ele>498.58089999999999</ele>
        <time>2005-11-20T10:35:04Z</time>
      </trkpt>
      <trkpt lat="44.394800020381808" lon="11.04756991378963">
        <ele>498.58089999999999</ele>
        <time>2005-11-20T10:35:21Z</time>
      </trkpt>
      <trkpt lat="44.394853748381138" lon="11.047542840242386">
        <ele>498.58089999999999</ele>
        <time>2005-11-20T10:35:33Z</time>
      </trkpt>
      <trkpt lat="44.395119035616517" lon="11.047457344830036">
        <ele>501.94560000000001</ele>
        <time>2005-11-20T10:35:52Z</time>
      </trkpt>
      <trkpt lat="44.395267646759748" lon="11.047371681779623">
        <ele>503.8682</ele>
        <time>2005-11-20T10:36:06Z</time>
      </trkpt>
      <trkpt lat="44.395383736118674" lon="11.047312673181295">
        <ele>507.2328</ele>
        <time>2005-11-20T10:36:20Z</time>
      </trkpt>
      <trkpt lat="44.395478451624513" lon="11.047225752845407">
        <ele>509.6361</ele>
        <time>2005-11-20T10:36:34Z</time>
      </trkpt>
      <trkpt lat="44.395573502406478" lon="11.047183675691485">
        <ele>512.51999999999998</ele>
        <time>2005-11-20T10:36:47Z</time>
      </trkpt>
      <trkpt lat="44.395694034174085" lon="11.047155512496829">
        <ele>515.40409999999997</ele>
        <time>2005-11-20T10:37:02Z</time>
      </trkpt>
      <trkpt lat="44.395848428830504" lon="11.047220891341567">
        <ele>518.28779999999995</ele>
        <time>2005-11-20T10:37:19Z</time>
      </trkpt>
      <trkpt lat="44.395853877067566" lon="11.047237571328878">
        <ele>517.80730000000005</ele>
        <time>2005-11-20T10:37:21Z</time>
      </trkpt>
      <trkpt lat="44.395887153223157" lon="11.04728015139699">
        <ele>517.80730000000005</ele>
        <time>2005-11-20T10:37:25Z</time>
      </trkpt>
      <trkpt lat="44.395995615050197" lon="11.04739154689014">
        <ele>519.72990000000004</ele>
        <time>2005-11-20T10:37:37Z</time>
      </trkpt>
      <trkpt lat="44.396144980564713" lon="11.047618528828025">
        <ele>522.61389999999994</ele>
        <time>2005-11-20T10:37:55Z</time>
      </trkpt>
      <trkpt lat="44.396301889792085" lon="11.047873003408313">
        <ele>522.61389999999994</ele>
        <time>2005-11-20T10:38:14Z</time>
      </trkpt>
      <trkpt lat="44.396455613896251" lon="11.048019183799624">
        <ele>522.13319999999999</ele>
        <time>2005-11-20T10:38:28Z</time>
      </trkpt>
      <trkpt lat="44.396569691598415" lon="11.04817776940763">
        <ele>523.5752</ele>
        <time>2005-11-20T10:38:45Z</time>
      </trkpt>
      <trkpt lat="44.396578492596745" lon="11.048177685588598">
        <ele>523.09460000000001</ele>
        <time>2005-11-20T10:38:57Z</time>
      </trkpt>
      <trkpt lat="44.396646469831467" lon="11.048197969794273">
        <ele>523.5752</ele>
        <time>2005-11-20T10:39:03Z</time>
      </trkpt>
      <trkpt lat="44.396774293854833" lon="11.048371642827988">
        <ele>524.53650000000005</ele>
        <time>2005-11-20T10:39:18Z</time>
      </trkpt>
      <trkpt lat="44.396978979930282" lon="11.048625446856022">
        <ele>521.17200000000003</ele>
        <time>2005-11-20T10:39:28Z</time>
      </trkpt>
      <trkpt lat="44.397154077887535" lon="11.049065664410591">
        <ele>519.24929999999995</ele>
        <time>2005-11-20T10:39:39Z</time>
      </trkpt>
      <trkpt lat="44.397337306290865" lon="11.049639908596873">
        <ele>515.40409999999997</ele>
        <time>2005-11-20T10:39:51Z</time>
      </trkpt>
      <trkpt lat="44.397378042340279" lon="11.049796398729086">
        <ele>514.44259999999997</ele>
        <time>2005-11-20T10:39:53Z</time>
      </trkpt>
      <trkpt lat="44.397401763126254" lon="11.049954565241933">
        <ele>513.48140000000001</ele>
        <time>2005-11-20T10:39:55Z</time>
      </trkpt>
      <trkpt lat="44.39754132181406" lon="11.050424287095666">
        <ele>509.6361</ele>
        <time>2005-11-20T10:40:01Z</time>
      </trkpt>
      <trkpt lat="44.39773628488183" lon="11.050708517432213">
        <ele>507.2328</ele>
        <time>2005-11-20T10:40:05Z</time>
      </trkpt>
      <trkpt lat="44.397931499406695" lon="11.050918148830533">
        <ele>503.8682</ele>
        <time>2005-11-20T10:40:08Z</time>
      </trkpt>
      <trkpt lat="44.398135347291827" lon="11.051166923716664">
        <ele>501.46480000000003</ele>
        <time>2005-11-20T10:40:12Z</time>
      </trkpt>
      <trkpt lat="44.398207766935229" lon="11.05149507522583">
        <ele>500.50349999999997</ele>
        <time>2005-11-20T10:40:18Z</time>
      </trkpt>
      <trkpt lat="44.398192092776299" lon="11.051663216203451">
        <ele>498.1003</ele>
        <time>2005-11-20T10:40:20Z</time>
      </trkpt>
      <trkpt lat="44.398212796077132" lon="11.051908722147346">
        <ele>496.17770000000002</ele>
        <time>2005-11-20T10:40:23Z</time>
      </trkpt>
      <trkpt lat="44.398205755278468" lon="11.052166633307934">
        <ele>491.85169999999999</ele>
        <time>2005-11-20T10:40:26Z</time>
      </trkpt>
      <trkpt lat="44.398253196850419" lon="11.052491683512926">
        <ele>486.56450000000001</ele>
        <time>2005-11-20T10:40:29Z</time>
      </trkpt>
      <trkpt lat="44.398277252912521" lon="11.052617831155658">
        <ele>483.19979999999998</ele>
        <time>2005-11-20T10:40:30Z</time>
      </trkpt>
      <trkpt lat="44.398713111877441" lon="11.053181933239102">
        <ele>478.87389999999999</ele>
        <time>2005-11-20T10:40:34Z</time>
      </trkpt>
      <trkpt lat="44.398713111877441" lon="11.053314032033086">
        <ele>478.87389999999999</ele>
        <time>2005-11-20T10:40:35Z</time>
      </trkpt>
      <trkpt lat="44.39866122789681" lon="11.053886851295829">
        <ele>477.91250000000002</ele>
        <time>2005-11-20T10:40:40Z</time>
      </trkpt>
      <trkpt lat="44.398627281188965" lon="11.05400562286377">
        <ele>477.43189999999998</ele>
        <time>2005-11-20T10:40:42Z</time>
      </trkpt>
      <trkpt lat="44.398670196533203" lon="11.054370403289795">
        <ele>473.10610000000003</ele>
        <time>2005-11-20T10:40:47Z</time>
      </trkpt>
      <trkpt lat="44.398713111877441" lon="11.05473518371582">
        <ele>468.77999999999997</ele>
        <time>2005-11-20T10:40:50Z</time>
      </trkpt>
      <trkpt lat="44.398686373606324" lon="11.054890668019652">
        <ele>463.49279999999999</ele>
        <time>2005-11-20T10:45:44Z</time>
      </trkpt>
      <trkpt lat="44.398481687530875" lon="11.05481724254787">
        <ele>462.05079999999998</ele>
        <time>2005-11-20T10:45:51Z</time>
      </trkpt>
      <trkpt lat="44.398410022258759" lon="11.054752115160227">
        <ele>460.12819999999999</ele>
        <time>2005-11-20T10:45:52Z</time>
      </trkpt>
      <trkpt lat="44.398084385320544" lon="11.054530832916498">
        <ele>454.36020000000002</ele>
        <time>2005-11-20T10:45:56Z</time>
      </trkpt>
      <trkpt lat="44.397815158590674" lon="11.054569305852056">
        <ele>449.55369999999999</ele>
        <time>2005-11-20T10:45:59Z</time>
      </trkpt>
      <trkpt lat="44.39764684997499" lon="11.054593361914158">
        <ele>448.11180000000002</ele>
        <time>2005-11-20T10:46:01Z</time>
      </trkpt>
      <trkpt lat="44.397349124774337" lon="11.054635941982269">
        <ele>444.26650000000001</ele>
        <time>2005-11-20T10:46:04Z</time>
      </trkpt>
      <trkpt lat="44.397147707641125" lon="11.054702578112483">
        <ele>441.38240000000002</ele>
        <time>2005-11-20T10:46:06Z</time>
      </trkpt>
      <trkpt lat="44.396966826170683" lon="11.054793018847704">
        <ele>437.53710000000001</ele>
        <time>2005-11-20T10:46:08Z</time>
      </trkpt>
      <trkpt lat="44.396797260269523" lon="11.054897038266063">
        <ele>434.17259999999999</ele>
        <time>2005-11-20T10:46:10Z</time>
      </trkpt>
      <trkpt lat="44.396600620821118" lon="11.055145561695099">
        <ele>427.92399999999998</ele>
        <time>2005-11-20T10:46:13Z</time>
      </trkpt>
      <trkpt lat="44.396503893658519" lon="11.055346308276057">
        <ele>424.07870000000003</ele>
        <time>2005-11-20T10:46:15Z</time>
      </trkpt>
      <trkpt lat="44.396321419626474" lon="11.055437587201595">
        <ele>422.15600000000001</ele>
        <time>2005-11-20T10:46:17Z</time>
      </trkpt>
      <trkpt lat="44.396225279197097" lon="11.055514616891742">
        <ele>417.34960000000001</ele>
        <time>2005-11-20T10:46:18Z</time>
      </trkpt>
      <trkpt lat="44.39595814794302" lon="11.055835224688053">
        <ele>412.5428</ele>
        <time>2005-11-20T10:46:22Z</time>
      </trkpt>
      <trkpt lat="44.395903078839183" lon="11.055901441723108">
        <ele>412.06229999999999</ele>
        <time>2005-11-20T10:46:23Z</time>
      </trkpt>
      <trkpt lat="44.395762262865901" lon="11.055922983214259">
        <ele>407.73630000000003</ele>
        <time>2005-11-20T10:46:26Z</time>
      </trkpt>
      <trkpt lat="44.395650448277593" lon="11.055741682648659">
        <ele>402.92970000000003</ele>
        <time>2005-11-20T10:46:29Z</time>
      </trkpt>
      <trkpt lat="44.395633600652218" lon="11.055623413994908">
        <ele>402.44909999999999</ele>
        <time>2005-11-20T10:46:30Z</time>
      </trkpt>
      <trkpt lat="44.395604180172086" lon="11.055417554453015">
        <ele>399.08440000000002</ele>
        <time>2005-11-20T10:46:32Z</time>
      </trkpt>
      <trkpt lat="44.395483313128352" lon="11.055269613862038">
        <ele>392.3553</ele>
        <time>2005-11-20T10:46:35Z</time>
      </trkpt>
      <trkpt lat="44.395410558208823" lon="11.055284198373556">
        <ele>391.3938</ele>
        <time>2005-11-20T10:46:36Z</time>
      </trkpt>
      <trkpt lat="44.39524132758379" lon="11.055318061262369">
        <ele>388.02929999999998</ele>
        <time>2005-11-20T10:46:38Z</time>
      </trkpt>
      <trkpt lat="44.39502582885325" lon="11.055235667154193">
        <ele>385.62599999999998</ele>
        <time>2005-11-20T10:46:41Z</time>
      </trkpt>
      <trkpt lat="44.394872607663274" lon="11.055113123729825">
        <ele>384.66480000000001</ele>
        <time>2005-11-20T10:46:43Z</time>
      </trkpt>
      <trkpt lat="44.394536912441254" lon="11.054946910589933">
        <ele>380.33870000000002</ele>
        <time>2005-11-20T10:46:47Z</time>
      </trkpt>
      <trkpt lat="44.394452758133411" lon="11.05493014678359">
        <ele>379.37740000000002</ele>
        <time>2005-11-20T10:46:48Z</time>
      </trkpt>
      <trkpt lat="44.394304985180497" lon="11.054923105984926">
        <ele>379.37740000000002</ele>
        <time>2005-11-20T10:46:50Z</time>
      </trkpt>
      <trkpt lat="44.393951185047626" lon="11.055109268054366">
        <ele>378.41609999999997</ele>
        <time>2005-11-20T10:46:55Z</time>
      </trkpt>
      <trkpt lat="44.393779272213578" lon="11.055199708789587">
        <ele>377.93540000000002</ele>
        <time>2005-11-20T10:46:57Z</time>
      </trkpt>
      <trkpt lat="44.393430333584547" lon="11.055240780115128">
        <ele>375.53210000000001</ele>
        <time>2005-11-20T10:47:01Z</time>
      </trkpt>
      <trkpt lat="44.393270909786224" lon="11.054890165105462">
        <ele>374.57080000000002</ele>
        <time>2005-11-20T10:47:05Z</time>
      </trkpt>
      <trkpt lat="44.393065050244331" lon="11.054778099060059">
        <ele>376.49349999999998</ele>
        <time>2005-11-20T10:47:09Z</time>
      </trkpt>
      <trkpt lat="44.39304300583899" lon="11.05478405021131">
        <ele>377.93540000000002</ele>
        <time>2005-11-20T10:47:11Z</time>
      </trkpt>
      <trkpt lat="44.392973436042666" lon="11.054863091558218">
        <ele>379.858</ele>
        <time>2005-11-20T10:47:14Z</time>
      </trkpt>
      <trkpt lat="44.392524752765894" lon="11.055373046547174">
        <ele>381.30000000000001</ele>
        <time>2005-11-20T10:47:30Z</time>
      </trkpt>
      <trkpt lat="44.39220598898828" lon="11.055735228583217">
        <ele>382.74209999999999</ele>
        <time>2005-11-20T10:47:42Z</time>
      </trkpt>
      <trkpt lat="44.391635516658425" lon="11.0565753467381">
        <ele>383.70319999999998</ele>
        <time>2005-11-20T10:48:07Z</time>
      </trkpt>
      <trkpt lat="44.391204351559281" lon="11.057065352797508">
        <ele>385.62599999999998</ele>
        <time>2005-11-20T10:48:20Z</time>
      </trkpt>
      <trkpt lat="44.391174176707864" lon="11.05709963478148">
        <ele>385.62599999999998</ele>
        <time>2005-11-20T10:48:21Z</time>
      </trkpt>
      <trkpt lat="44.391091028228402" lon="11.057193763554096">
        <ele>387.06799999999998</ele>
        <time>2005-11-20T10:48:25Z</time>
      </trkpt>
      <trkpt lat="44.391024811193347" lon="11.057268781587481">
        <ele>388.50999999999999</ele>
        <time>2005-11-20T10:48:29Z</time>
      </trkpt>
      <trkpt lat="44.391012573614717" lon="11.05755259282887">
        <ele>389.95190000000002</ele>
        <time>2005-11-20T10:48:38Z</time>
      </trkpt>
      <trkpt lat="44.39093210734427" lon="11.058072689920664">
        <ele>388.50999999999999</ele>
        <time>2005-11-20T10:48:49Z</time>
      </trkpt>
      <trkpt lat="44.390684673562646" lon="11.058905012905598">
        <ele>387.54860000000002</ele>
        <time>2005-11-20T10:49:01Z</time>
      </trkpt>
      <trkpt lat="44.390571098774672" lon="11.059287060052156">
        <ele>388.50999999999999</ele>
        <time>2005-11-20T10:49:09Z</time>
      </trkpt>
      <trkpt lat="44.390393570065498" lon="11.059989798814058">
        <ele>386.5874</ele>
        <time>2005-11-20T10:49:19Z</time>
      </trkpt>
      <trkpt lat="44.390197098255157" lon="11.060749283060431">
        <ele>387.06799999999998</ele>
        <time>2005-11-20T10:49:28Z</time>
      </trkpt>
      <trkpt lat="44.390045218169689" lon="11.061318917199969">
        <ele>389.47120000000001</ele>
        <time>2005-11-20T10:49:40Z</time>
      </trkpt>
      <trkpt lat="44.389868779107928" lon="11.061775730922818">
        <ele>390.43259999999998</ele>
        <time>2005-11-20T10:49:51Z</time>
      </trkpt>
      <trkpt lat="44.389798371121287" lon="11.061822669580579">
        <ele>390.43259999999998</ele>
        <time>2005-11-20T10:49:53Z</time>
      </trkpt>
      <trkpt lat="44.38955663703382" lon="11.062032552435994">
        <ele>390.43259999999998</ele>
        <time>2005-11-20T10:49:59Z</time>
      </trkpt>
      <trkpt lat="44.389038803055882" lon="11.062649879604578">
        <ele>391.3938</ele>
        <time>2005-11-20T10:50:13Z</time>
      </trkpt>
      <trkpt lat="44.388736048713326" lon="11.063019270077348">
        <ele>388.99059999999997</ele>
        <time>2005-11-20T10:50:20Z</time>
      </trkpt>
      <trkpt lat="44.388586264103651" lon="11.063262680545449">
        <ele>387.06799999999998</ele>
        <time>2005-11-20T10:50:23Z</time>
      </trkpt>
      <trkpt lat="44.388536894693971" lon="11.063342895358801">
        <ele>385.62599999999998</ele>
        <time>2005-11-20T10:50:24Z</time>
      </trkpt>
      <trkpt lat="44.388544354587793" lon="11.06371664442122">
        <ele>381.78059999999999</ele>
        <time>2005-11-20T10:50:28Z</time>
      </trkpt>
      <trkpt lat="44.388615349307656" lon="11.063803480938077">
        <ele>380.81950000000001</ele>
        <time>2005-11-20T10:50:29Z</time>
      </trkpt>
      <trkpt lat="44.388748202472925" lon="11.063965754583478">
        <ele>378.89690000000002</ele>
        <time>2005-11-20T10:50:31Z</time>
      </trkpt>
      <trkpt lat="44.38904358074069" lon="11.064186282455921">
        <ele>374.57080000000002</ele>
        <time>2005-11-20T10:50:35Z</time>
      </trkpt>
      <trkpt lat="44.389455048367381" lon="11.064573861658573">
        <ele>369.28370000000001</ele>
        <time>2005-11-20T10:50:40Z</time>
      </trkpt>
      <trkpt lat="44.389620423316956" lon="11.064855074509978">
        <ele>361.59309999999999</ele>
        <time>2005-11-20T10:50:43Z</time>
      </trkpt>
      <trkpt lat="44.389731399714947" lon="11.064961524680257">
        <ele>359.18970000000002</ele>
        <time>2005-11-20T10:50:45Z</time>
      </trkpt>
      <trkpt lat="44.389872467145324" lon="11.064752982929349">
        <ele>357.26710000000003</ele>
        <time>2005-11-20T10:50:48Z</time>
      </trkpt>
      <trkpt lat="44.390026023611426" lon="11.064358195289969">
        <ele>354.38319999999999</ele>
        <time>2005-11-20T10:50:52Z</time>
      </trkpt>
      <trkpt lat="44.390404131263494" lon="11.064303796738386">
        <ele>351.01839999999999</ele>
        <time>2005-11-20T10:50:57Z</time>
      </trkpt>
      <trkpt lat="44.390491722151637" lon="11.064371941611171">
        <ele>350.5378</ele>
        <time>2005-11-20T10:50:58Z</time>
      </trkpt>
      <trkpt lat="44.390777964144945" lon="11.064594564959407">
        <ele>347.65390000000002</ele>
        <time>2005-11-20T10:51:01Z</time>
      </trkpt>
      <trkpt lat="44.391003521159291" lon="11.065066130831838">
        <ele>340.92469999999997</ele>
        <time>2005-11-20T10:51:05Z</time>
      </trkpt>
      <trkpt lat="44.391011819243431" lon="11.065223291516304">
        <ele>339.96339999999998</ele>
        <time>2005-11-20T10:51:06Z</time>
      </trkpt>
      <trkpt lat="44.391163028776646" lon="11.066028792411089">
        <ele>331.7921</ele>
        <time>2005-11-20T10:51:11Z</time>
      </trkpt>
      <trkpt lat="44.39122823998332" lon="11.066179415211082">
        <ele>330.83089999999999</ele>
        <time>2005-11-20T10:51:12Z</time>
      </trkpt>
      <trkpt lat="44.391357321292162" lon="11.066477140411735">
        <ele>328.9083</ele>
        <time>2005-11-20T10:51:14Z</time>
      </trkpt>
      <trkpt lat="44.391548596322536" lon="11.06691861525178">
        <ele>326.02420000000001</ele>
        <time>2005-11-20T10:51:17Z</time>
      </trkpt>
      <trkpt lat="44.391664350405335" lon="11.067185578867793">
        <ele>321.69839999999999</ele>
        <time>2005-11-20T10:51:19Z</time>
      </trkpt>
      <trkpt lat="44.391657309606671" lon="11.067642727866769">
        <ele>317.37240000000003</ele>
        <time>2005-11-20T10:51:22Z</time>
      </trkpt>
      <trkpt lat="44.391634007915854" lon="11.067770635709167">
        <ele>314.48840000000001</ele>
        <time>2005-11-20T10:51:23Z</time>
      </trkpt>
      <trkpt lat="44.3918233551085" lon="11.068225437775254">
        <ele>309.20119999999997</ele>
        <time>2005-11-20T10:51:27Z</time>
      </trkpt>
      <trkpt lat="44.392130970954895" lon="11.068701446056366">
        <ele>305.35599999999999</ele>
        <time>2005-11-20T10:51:31Z</time>
      </trkpt>
      <trkpt lat="44.392296262085438" lon="11.068956926465034">
        <ele>303.91390000000001</ele>
        <time>2005-11-20T10:51:33Z</time>
      </trkpt>
      <trkpt lat="44.392380751669407" lon="11.06908768415451">
        <ele>299.10730000000001</ele>
        <time>2005-11-20T10:51:34Z</time>
      </trkpt>
      <trkpt lat="44.392634220421314" lon="11.069479705765843">
        <ele>297.18470000000002</ele>
        <time>2005-11-20T10:51:37Z</time>
      </trkpt>
      <trkpt lat="44.392801355570555" lon="11.069738371297717">
        <ele>293.82010000000002</ele>
        <time>2005-11-20T10:51:39Z</time>
      </trkpt>
      <trkpt lat="44.393057506531477" lon="11.070134500041604">
        <ele>290.4556</ele>
        <time>2005-11-20T10:51:42Z</time>
      </trkpt>
      <trkpt lat="44.393241489306092" lon="11.070419233292341">
        <ele>286.12950000000001</ele>
        <time>2005-11-20T10:51:44Z</time>
      </trkpt>
      <trkpt lat="44.393427902832627" lon="11.070707570761442">
        <ele>281.32299999999998</ele>
        <time>2005-11-20T10:51:46Z</time>
      </trkpt>
      <trkpt lat="44.393614316359162" lon="11.070995908230543">
        <ele>277.95830000000001</ele>
        <time>2005-11-20T10:51:48Z</time>
      </trkpt>
      <trkpt lat="44.393797963857651" lon="11.071279887109995">
        <ele>276.51639999999998</ele>
        <time>2005-11-20T10:51:50Z</time>
      </trkpt>
      <trkpt lat="44.394162828102708" lon="11.071844240650535">
        <ele>272.19040000000001</ele>
        <time>2005-11-20T10:51:54Z</time>
      </trkpt>
      <trkpt lat="44.394346559420228" lon="11.07212838716805">
        <ele>268.3451</ele>
        <time>2005-11-20T10:51:56Z</time>
      </trkpt>
      <trkpt lat="44.394681164994836" lon="11.072504231706262">
        <ele>260.17399999999998</ele>
        <time>2005-11-20T10:51:59Z</time>
      </trkpt>
      <trkpt lat="44.394921977072954" lon="11.07274504378438">
        <ele>257.77080000000001</ele>
        <time>2005-11-20T10:52:01Z</time>
      </trkpt>
      <trkpt lat="44.395131440833211" lon="11.07305190525949">
        <ele>252.964</ele>
        <time>2005-11-20T10:52:03Z</time>
      </trkpt>
      <trkpt lat="44.395291786640882" lon="11.073359102010727">
        <ele>251.52209999999999</ele>
        <time>2005-11-20T10:52:05Z</time>
      </trkpt>
      <trkpt lat="44.39533855766058" lon="11.073522800579667">
        <ele>249.59950000000001</ele>
        <time>2005-11-20T10:52:06Z</time>
      </trkpt>
      <trkpt lat="44.395550284534693" lon="11.073907865211368">
        <ele>247.196</ele>
        <time>2005-11-20T10:52:09Z</time>
      </trkpt>
      <trkpt lat="44.395861588418484" lon="11.074317907914519">
        <ele>244.31229999999999</ele>
        <time>2005-11-20T10:52:14Z</time>
      </trkpt>
      <trkpt lat="44.395923614501953" lon="11.074390411376953">
        <ele>244.31229999999999</ele>
        <time>2005-11-20T10:52:16Z</time>
      </trkpt>
      <trkpt lat="44.396218322217464" lon="11.074652178213">
        <ele>245.7542</ele>
        <time>2005-11-20T10:52:22Z</time>
      </trkpt>
      <trkpt lat="44.396766666322947" lon="11.075229607522488">
        <ele>200.75399999999999</ele>
      </trkpt>
      <trkpt lat="44.397212164476514" lon="11.07608187943697">
        <ele>244.7928</ele>
        <time>2005-11-20T10:52:46Z</time>
      </trkpt>
      <trkpt lat="44.397287014871836" lon="11.076256558299065">
        <ele>244.7928</ele>
        <time>2005-11-20T10:52:48Z</time>
      </trkpt>
      <trkpt lat="44.397889841347933" lon="11.076739775016904">
        <ele>242.3896</ele>
        <time>2005-11-20T10:52:57Z</time>
      </trkpt>
      <trkpt lat="44.398915534839034" lon="11.077312929555774">
        <ele>240.46700000000001</ele>
        <time>2005-11-20T10:53:10Z</time>
      </trkpt>
      <trkpt lat="44.399402607232332" lon="11.077505378052592">
        <ele>239.0249</ele>
        <time>2005-11-20T10:53:16Z</time>
      </trkpt>
      <trkpt lat="44.399702930822968" lon="11.077825231477618">
        <ele>237.10230000000001</ele>
        <time>2005-11-20T10:53:20Z</time>
      </trkpt>
      <trkpt lat="44.400052204728127" lon="11.078381119295955">
        <ele>235.66030000000001</ele>
        <time>2005-11-20T10:53:26Z</time>
      </trkpt>
      <trkpt lat="44.400800876319408" lon="11.079553999006748">
        <ele>234.2184</ele>
        <time>2005-11-20T10:53:40Z</time>
      </trkpt>
      <trkpt lat="44.400854604318738" lon="11.079637231305242">
        <ele>234.2184</ele>
        <time>2005-11-20T10:53:41Z</time>
      </trkpt>
      <trkpt lat="44.401486599817872" lon="11.080428902059793">
        <ele>232.7765</ele>
        <time>2005-11-20T10:53:51Z</time>
      </trkpt>
      <trkpt lat="44.402632489800453" lon="11.081487368792295">
        <ele>229.89230000000001</ele>
        <time>2005-11-20T10:54:07Z</time>
      </trkpt>
      <trkpt lat="44.403542093932629" lon="11.082263113930821">
        <ele>227.0085</ele>
        <time>2005-11-20T10:54:21Z</time>
      </trkpt>
      <trkpt lat="44.404402831569314" lon="11.083099627867341">
        <ele>225.08590000000001</ele>
        <time>2005-11-20T10:54:34Z</time>
      </trkpt>
      <trkpt lat="44.405065923929214" lon="11.084238728508353">
        <ele>223.6438</ele>
        <time>2005-11-20T10:54:48Z</time>
      </trkpt>
      <trkpt lat="44.405698338523507" lon="11.085320916026831">
        <ele>219.79859999999999</ele>
        <time>2005-11-20T10:55:00Z</time>
      </trkpt>
      <trkpt lat="44.406436951830983" lon="11.086584739387035">
        <ele>217.876</ele>
        <time>2005-11-20T10:55:14Z</time>
      </trkpt>
      <trkpt lat="44.40700558014214" lon="11.087409351021051">
        <ele>214.5112</ele>
        <time>2005-11-20T10:55:24Z</time>
      </trkpt>
      <trkpt lat="44.407061487436295" lon="11.087490152567625">
        <ele>214.5112</ele>
        <time>2005-11-20T10:55:25Z</time>
      </trkpt>
      <trkpt lat="44.407451329752803" lon="11.088053248822689">
        <ele>212.58860000000001</ele>
        <time>2005-11-20T10:55:32Z</time>
      </trkpt>
      <trkpt lat="44.4081508833915" lon="11.088908370584249">
        <ele>211.62739999999999</ele>
        <time>2005-11-20T10:55:44Z</time>
      </trkpt>
      <trkpt lat="44.409034755080938" lon="11.089754607528448">
        <ele>212.108</ele>
        <time>2005-11-20T10:55:59Z</time>
      </trkpt>
      <trkpt lat="44.40920733846724" lon="11.089914869517088">
        <ele>210.666</ele>
        <time>2005-11-20T10:56:02Z</time>
      </trkpt>
      <trkpt lat="44.410073943436146" lon="11.090811481699347">
        <ele>212.58860000000001</ele>
        <time>2005-11-20T10:56:18Z</time>
      </trkpt>
      <trkpt lat="44.410738041624427" lon="11.091535091400146">
        <ele>214.03059999999999</ele>
        <time>2005-11-20T10:56:32Z</time>
      </trkpt>
      <trkpt lat="44.411490987986326" lon="11.092341849580407">
        <ele>215.4727</ele>
        <time>2005-11-20T10:56:49Z</time>
      </trkpt>
      <trkpt lat="44.412026759237051" lon="11.092916093766689">
        <ele>219.31800000000001</ele>
        <time>2005-11-20T10:57:02Z</time>
      </trkpt>
      <trkpt lat="44.412688259035349" lon="11.09359092079103">
        <ele>222.20179999999999</ele>
        <time>2005-11-20T10:57:20Z</time>
      </trkpt>
      <trkpt lat="44.413259904831648" lon="11.094173043966293">
        <ele>223.6438</ele>
        <time>2005-11-20T10:57:34Z</time>
      </trkpt>
      <trkpt lat="44.414029195904732" lon="11.095162108540535">
        <ele>221.72120000000001</ele>
        <time>2005-11-20T10:57:49Z</time>
      </trkpt>
      <trkpt lat="44.414906864985824" lon="11.09605704434216">
        <ele>218.8373</ele>
        <time>2005-11-20T10:58:03Z</time>
      </trkpt>
      <trkpt lat="44.415758633986115" lon="11.096932450309396">
        <ele>215.95320000000001</ele>
        <time>2005-11-20T10:58:15Z</time>
      </trkpt>
      <trkpt lat="44.416734119877219" lon="11.097815986722708">
        <ele>215.4727</ele>
        <time>2005-11-20T10:58:29Z</time>
      </trkpt>
      <trkpt lat="44.416846102103591" lon="11.097909277305007">
        <ele>215.4727</ele>
        <time>2005-11-20T10:58:31Z</time>
      </trkpt>
      <trkpt lat="44.417524952441454" lon="11.098135923966765">
        <ele>216.91470000000001</ele>
        <time>2005-11-20T10:58:42Z</time>
      </trkpt>
      <trkpt lat="44.418205562978983" lon="11.098663313314319">
        <ele>215.95320000000001</ele>
        <time>2005-11-20T10:58:53Z</time>
      </trkpt>
      <trkpt lat="44.418985247612" lon="11.099313581362367">
        <ele>213.0693</ele>
        <time>2005-11-20T10:59:04Z</time>
      </trkpt>
      <trkpt lat="44.419804327189922" lon="11.100070383399725">
        <ele>210.18539999999999</ele>
        <time>2005-11-20T10:59:15Z</time>
      </trkpt>
      <trkpt lat="44.420407405123115" lon="11.100768931210041">
        <ele>209.22409999999999</ele>
        <time>2005-11-20T10:59:24Z</time>
      </trkpt>
      <trkpt lat="44.420715775340796" lon="11.101550878956914">
        <ele>209.22409999999999</ele>
        <time>2005-11-20T10:59:32Z</time>
      </trkpt>
      <trkpt lat="44.420789200812578" lon="11.101829912513494">
        <ele>210.18539999999999</ele>
        <time>2005-11-20T10:59:35Z</time>
      </trkpt>
      <trkpt lat="44.421186167746782" lon="11.102529969066381">
        <ele>210.18539999999999</ele>
        <time>2005-11-20T10:59:45Z</time>
      </trkpt>
      <trkpt lat="44.421923272311687" lon="11.103117540478706">
        <ele>208.2628</ele>
        <time>2005-11-20T10:59:57Z</time>
      </trkpt>
      <trkpt lat="44.422497097402811" lon="11.103620454668999">
        <ele>205.8595</ele>
        <time>2005-11-20T11:00:05Z</time>
      </trkpt>
      <trkpt lat="44.423065390437841" lon="11.104289498180151">
        <ele>202.4949</ele>
        <time>2005-11-20T11:00:13Z</time>
      </trkpt>
      <trkpt lat="44.423332773149014" lon="11.104663917794824">
        <ele>201.53360000000001</ele>
        <time>2005-11-20T11:00:17Z</time>
      </trkpt>
      <trkpt lat="44.42368003539741" lon="11.105101620778441">
        <ele>201.05289999999999</ele>
        <time>2005-11-20T11:00:22Z</time>
      </trkpt>
      <trkpt lat="44.424174819141626" lon="11.105423234403133">
        <ele>196.7269</ele>
        <time>2005-11-20T11:00:28Z</time>
      </trkpt>
      <trkpt lat="44.424347318708897" lon="11.105535384267569">
        <ele>196.24629999999999</ele>
        <time>2005-11-20T11:00:30Z</time>
      </trkpt>
      <trkpt lat="44.42475400865078" lon="11.105908630415797">
        <ele>193.3623</ele>
        <time>2005-11-20T11:00:35Z</time>
      </trkpt>
      <trkpt lat="44.425386423245072" lon="11.106565352529287">
        <ele>189.99770000000001</ele>
        <time>2005-11-20T11:00:43Z</time>
      </trkpt>
      <trkpt lat="44.425539057701826" lon="11.106723854318261">
        <ele>189.517</ele>
        <time>2005-11-20T11:00:45Z</time>
      </trkpt>
      <trkpt lat="44.426083965227008" lon="11.106966510415077">
        <ele>189.517</ele>
        <time>2005-11-20T11:00:52Z</time>
      </trkpt>
      <trkpt lat="44.426577826961875" lon="11.107156360521913">
        <ele>190.47839999999999</ele>
        <time>2005-11-20T11:01:01Z</time>
      </trkpt>
      <trkpt lat="44.427033718675375" lon="11.107490882277489">
        <ele>192.8817</ele>
        <time>2005-11-20T11:01:13Z</time>
      </trkpt>
      <trkpt lat="44.427448622882366" lon="11.107762958854437">
        <ele>196.24629999999999</ele>
        <time>2005-11-20T11:01:25Z</time>
      </trkpt>
      <trkpt lat="44.428059244528413" lon="11.108013410121202">
        <ele>199.61080000000001</ele>
        <time>2005-11-20T11:01:40Z</time>
      </trkpt>
      <trkpt lat="44.428751673549414" lon="11.108290096744895">
        <ele>202.4949</ele>
        <time>2005-11-20T11:01:56Z</time>
      </trkpt>
      <trkpt lat="44.429566562175751" lon="11.108685890212655">
        <ele>203.93690000000001</ele>
        <time>2005-11-20T11:02:12Z</time>
      </trkpt>
      <trkpt lat="44.43110179156065" lon="11.108889151364565">
        <ele>205.8595</ele>
        <time>2005-11-20T11:02:39Z</time>
      </trkpt>
      <trkpt lat="44.43194811232388" lon="11.109011527150869">
        <ele>207.3014</ele>
        <time>2005-11-20T11:02:53Z</time>
      </trkpt>
      <trkpt lat="44.432630147784948" lon="11.109363483265042">
        <ele>209.70480000000001</ele>
        <time>2005-11-20T11:03:06Z</time>
      </trkpt>
      <trkpt lat="44.433095091953874" lon="11.109603540971875">
        <ele>212.108</ele>
        <time>2005-11-20T11:03:17Z</time>
      </trkpt>
      <trkpt lat="44.433619882911444" lon="11.109833875671029">
        <ele>214.03059999999999</ele>
        <time>2005-11-20T11:03:31Z</time>
      </trkpt>
      <trkpt lat="44.433741252869368" lon="11.109860194846988">
        <ele>214.5112</ele>
        <time>2005-11-20T11:03:34Z</time>
      </trkpt>
      <trkpt lat="44.433929761871696" lon="11.109833288937807">
        <ele>214.5112</ele>
        <time>2005-11-20T11:03:38Z</time>
      </trkpt>
      <trkpt lat="44.434560080990195" lon="11.109414529055357">
        <ele>214.5112</ele>
        <time>2005-11-20T11:03:51Z</time>
      </trkpt>
      <trkpt lat="44.435455854982138" lon="11.108784796670079">
        <ele>215.4727</ele>
        <time>2005-11-20T11:04:09Z</time>
      </trkpt>
      <trkpt lat="44.436113080009818" lon="11.108140228316188">
        <ele>218.35659999999999</ele>
        <time>2005-11-20T11:04:25Z</time>
      </trkpt>
      <trkpt lat="44.43626319989562" lon="11.107917269691825">
        <ele>218.35659999999999</ele>
        <time>2005-11-20T11:04:30Z</time>
      </trkpt>
      <trkpt lat="44.436725545674562" lon="11.107283849269152">
        <ele>215.95320000000001</ele>
        <time>2005-11-20T11:04:40Z</time>
      </trkpt>
      <trkpt lat="44.437152184545994" lon="11.107034906744957">
        <ele>213.0693</ele>
        <time>2005-11-20T11:04:45Z</time>
      </trkpt>
      <trkpt lat="44.437723746523261" lon="11.10671404749155">
        <ele>209.22409999999999</ele>
        <time>2005-11-20T11:04:51Z</time>
      </trkpt>
      <trkpt lat="44.437820389866829" lon="11.106656044721603">
        <ele>209.22409999999999</ele>
        <time>2005-11-20T11:04:52Z</time>
      </trkpt>
      <trkpt lat="44.438447942957282" lon="11.106423866003752">
        <ele>206.82069999999999</ele>
        <time>2005-11-20T11:04:58Z</time>
      </trkpt>
      <trkpt lat="44.438816076144576" lon="11.106117926537991">
        <ele>204.41749999999999</ele>
        <time>2005-11-20T11:05:02Z</time>
      </trkpt>
      <trkpt lat="44.438990587368608" lon="11.105939643457532">
        <ele>203.4562</ele>
        <time>2005-11-20T11:05:04Z</time>
      </trkpt>
      <trkpt lat="44.439078513532877" lon="11.105849705636501">
        <ele>203.4562</ele>
        <time>2005-11-20T11:05:05Z</time>
      </trkpt>
      <trkpt lat="44.439426697790623" lon="11.105493642389774">
        <ele>200.0917</ele>
        <time>2005-11-20T11:05:09Z</time>
      </trkpt>
      <trkpt lat="44.439968755468726" lon="11.104939682409167">
        <ele>195.28489999999999</ele>
        <time>2005-11-20T11:05:15Z</time>
      </trkpt>
      <trkpt lat="44.44006179459393" lon="11.10484454780817">
        <ele>195.28489999999999</ele>
        <time>2005-11-20T11:05:16Z</time>
      </trkpt>
      <trkpt lat="44.44033931940794" lon="11.104560988023877">
        <ele>191.9203</ele>
        <time>2005-11-20T11:05:19Z</time>
      </trkpt>
      <trkpt lat="44.440514333546162" lon="11.104368539527059">
        <ele>190.47839999999999</ele>
        <time>2005-11-20T11:05:21Z</time>
      </trkpt>
      <trkpt lat="44.440753050148487" lon="11.104027647525072">
        <ele>187.59440000000001</ele>
        <time>2005-11-20T11:05:24Z</time>
      </trkpt>
      <trkpt lat="44.44091490469873" lon="11.103796306997538">
        <ele>185.67179999999999</ele>
        <time>2005-11-20T11:05:26Z</time>
      </trkpt>
      <trkpt lat="44.441203158348799" lon="11.103505622595549">
        <ele>184.22989999999999</ele>
        <time>2005-11-20T11:05:29Z</time>
      </trkpt>
      <trkpt lat="44.441439444199204" lon="11.103423479944468">
        <ele>182.7878</ele>
        <time>2005-11-20T11:05:31Z</time>
      </trkpt>
      <trkpt lat="44.441797267645597" lon="11.103391041979194">
        <ele>179.90379999999999</ele>
        <time>2005-11-20T11:05:34Z</time>
      </trkpt>
      <trkpt lat="44.442259697243571" lon="11.102952333167195">
        <ele>177.02000000000001</ele>
        <time>2005-11-20T11:05:39Z</time>
      </trkpt>
      <trkpt lat="44.442315269261599" lon="11.102813361212611">
        <ele>176.05860000000001</ele>
        <time>2005-11-20T11:05:40Z</time>
      </trkpt>
      <trkpt lat="44.442522469907999" lon="11.102236770093441">
        <ele>172.69399999999999</ele>
        <time>2005-11-20T11:05:44Z</time>
      </trkpt>
      <trkpt lat="44.442996885627508" lon="11.102086147293448">
        <ele>169.3295</ele>
        <time>2005-11-20T11:05:49Z</time>
      </trkpt>
      <trkpt lat="44.443123871460557" lon="11.102314889431">
        <ele>167.88730000000001</ele>
        <time>2005-11-20T11:05:51Z</time>
      </trkpt>
      <trkpt lat="44.443251108750701" lon="11.102543966844678">
        <ele>167.4067</ele>
        <time>2005-11-20T11:05:53Z</time>
      </trkpt>
      <trkpt lat="44.443730469793081" lon="11.103024249896407">
        <ele>164.0421</ele>
        <time>2005-11-20T11:05:59Z</time>
      </trkpt>
      <trkpt lat="44.443957367911935" lon="11.102890474721789">
        <ele>162.11949999999999</ele>
        <time>2005-11-20T11:06:02Z</time>
      </trkpt>
      <trkpt lat="44.443841110914946" lon="11.102611273527145">
        <ele>160.1969</ele>
        <time>2005-11-20T11:06:05Z</time>
      </trkpt>
      <trkpt lat="44.443553276360035" lon="11.102133002132177">
        <ele>157.31290000000001</ele>
        <time>2005-11-20T11:06:10Z</time>
      </trkpt>
      <trkpt lat="44.443517904728651" lon="11.102003501728177">
        <ele>156.35159999999999</ele>
        <time>2005-11-20T11:06:11Z</time>
      </trkpt>
      <trkpt lat="44.443412208929658" lon="11.101615838706493">
        <ele>153.46770000000001</ele>
        <time>2005-11-20T11:06:14Z</time>
      </trkpt>
      <trkpt lat="44.443315397948027" lon="11.101370584219694">
        <ele>152.50630000000001</ele>
        <time>2005-11-20T11:06:16Z</time>
      </trkpt>
      <trkpt lat="44.442888172343373" lon="11.10103371553123">
        <ele>151.0642</ele>
        <time>2005-11-20T11:06:21Z</time>
      </trkpt>
      <trkpt lat="44.44280200637877" lon="11.100984513759613">
        <ele>150.10300000000001</ele>
        <time>2005-11-20T11:06:22Z</time>
      </trkpt>
      <trkpt lat="44.442627830430865" lon="11.100884936749935">
        <ele>149.6223</ele>
        <time>2005-11-20T11:06:24Z</time>
      </trkpt>
      <trkpt lat="44.442406296730042" lon="11.100633647292852">
        <ele>147.21899999999999</ele>
        <time>2005-11-20T11:06:27Z</time>
      </trkpt>
      <trkpt lat="44.44237008690834" lon="11.100343801081181">
        <ele>146.73840000000001</ele>
        <time>2005-11-20T11:06:29Z</time>
      </trkpt>
      <trkpt lat="44.442294985055923" lon="11.099752876907587">
        <ele>143.37370000000001</ele>
        <time>2005-11-20T11:06:33Z</time>
      </trkpt>
      <trkpt lat="44.442218961194158" lon="11.099170334637165">
        <ele>140.00919999999999</ele>
        <time>2005-11-20T11:06:37Z</time>
      </trkpt>
      <trkpt lat="44.442247543483973" lon="11.098610842600465">
        <ele>135.6831</ele>
        <time>2005-11-20T11:06:42Z</time>
      </trkpt>
      <trkpt lat="44.442253494635224" lon="11.098563317209482">
        <ele>135.6831</ele>
        <time>2005-11-20T11:06:43Z</time>
      </trkpt>
      <trkpt lat="44.442529091611505" lon="11.098444545641541">
        <ele>134.72190000000001</ele>
        <time>2005-11-20T11:06:46Z</time>
      </trkpt>
      <trkpt lat="44.443079698830843" lon="11.098698768764734">
        <ele>133.2799</ele>
        <time>2005-11-20T11:06:56Z</time>
      </trkpt>
      <trkpt lat="44.4433961994946" lon="11.098796250298619">
        <ele>133.2799</ele>
        <time>2005-11-20T11:07:02Z</time>
      </trkpt>
      <trkpt lat="44.443435929715633" lon="11.098751910030842">
        <ele>131.83789999999999</ele>
        <time>2005-11-20T11:07:07Z</time>
      </trkpt>
      <trkpt lat="44.443362671881914" lon="11.098760543391109">
        <ele>131.35730000000001</ele>
        <time>2005-11-20T11:07:12Z</time>
      </trkpt>
      <trkpt lat="44.443358313292265" lon="11.098759872838855">
        <ele>131.35730000000001</ele>
        <time>2005-11-20T11:07:25Z</time>
      </trkpt>
      <trkpt lat="44.443354960530996" lon="11.09876305796206">
        <ele>131.35730000000001</ele>
        <time>2005-11-20T11:07:52Z</time>
      </trkpt>
      <trkpt lat="44.443327886983752" lon="11.098744701594114">
        <ele>129.9153</ele>
        <time>2005-11-20T11:07:59Z</time>
      </trkpt>
    </trkseg>
  </trk>

</gpx>
